DW8187 Weather Reports


time (UTC)temp
F
wind
direction
speed
knots
gust
knots
rain 1hr
in
rain 24hr
in
rain mn
in
humidity
%
barometer
mb
20260507225403 85 0 0.0 0.0 0.00 0.04 0.00 60 1017.7
20260507225306 85 0 0.0 0.0 0.00 0.04 0.00 60 1017.7
20260507225203 85 0 0.0 0.0 0.00 0.04 0.00 60 1017.7
20260507225103 85 0 0.0 0.0 0.00 0.04 0.00 60 1017.8
20260507225003 85 0 0.0 0.0 0.00 0.04 0.00 60 1017.9
20260507224903 85 0 0.0 0.0 0.00 0.04 0.00 60 1017.6
20260507224803 85 0 0.0 0.0 0.00 0.04 0.00 60 1017.6
20260507224703 85 0 0.0 0.0 0.00 0.04 0.00 60 1017.6
20260507224604 85 295 0.0 0.9 0.00 0.04 0.00 60 1017.7
20260507224504 85 295 0.0 0.9 0.00 0.04 0.00 60 1017.6
20260507224403 85 295 0.0 0.9 0.00 0.04 0.00 60 1017.6
20260507224303 85 295 0.0 0.9 0.00 0.04 0.00 60 1017.5
20260507224203 85 295 0.0 0.9 0.00 0.04 0.00 60 1017.5
20260507224105 85 295 0.0 0.9 0.00 0.04 0.00 60 1017.5
20260507224024 85 295 0.0 0.9 0.00 0.04 0.00 60 1017.7
20260507223903 85 291 0.0 0.9 0.00 0.04 0.00 60 1017.5
20260507223803 85 274 0.9 1.7 0.00 0.04 0.00 60 1017.5
20260507223703 85 256 0.9 1.7 0.00 0.04 0.00 60 1017.4
20260507223603 85 247 0.9 1.7 0.00 0.04 0.00 60 1017.5
20260507223503 85 242 0.9 1.7 0.00 0.04 0.00 60 1017.4
20260507223403 85 241 0.9 1.7 0.00 0.04 0.00 60 1017.5
20260507223303 85 241 0.9 1.7 0.00 0.04 0.00 60 1017.5
20260507223203 85 241 0.9 1.7 0.00 0.04 0.00 60 1017.5
20260507223103 85 241 0.9 1.7 0.00 0.04 0.00 60 1017.4
20260507223024 85 241 0.9 1.7 0.00 0.04 0.00 60 1017.5
20260507222924 85 248 0.9 1.7 0.00 0.04 0.00 60 1017.6
20260507222803 85 250 0.9 1.7 0.00 0.04 0.00 60 1017.4
20260507222704 85 266 0.9 1.7 0.00 0.04 0.00 60 1017.3
20260507222603 85 284 0.9 1.7 0.00 0.04 0.00 60 1017.4
20260507222504 85 288 0.9 1.7 0.00 0.04 0.00 60 1017.5
20260507222403 85 282 0.9 1.7 0.00 0.04 0.00 60 1017.4
20260507222306 85 282 0.9 1.7 0.00 0.04 0.00 60 1017.3
20260507222203 85 272 0.9 1.7 0.00 0.04 0.00 60 1017.3
20260507222103 85 266 0.9 1.7 0.00 0.04 0.00 60 1017.3
20260507222003 85 258 0.9 1.7 0.00 0.04 0.00 60 1017.3
20260507221903 85 245 0.9 2.6 0.00 0.04 0.00 60 1017.4
20260507221803 85 239 1.7 2.6 0.00 0.04 0.00 60 1017.5
20260507221724 85 236 1.7 2.6 0.00 0.04 0.00 60 1017.5
20260507221603 85 223 1.7 2.6 0.00 0.04 0.00 60 1017.3
20260507221503 85 219 1.7 2.6 0.00 0.04 0.00 60 1017.3
20260507221403 85 214 1.7 2.6 0.00 0.04 0.00 60 1017.3
20260507221303 85 214 1.7 2.6 0.00 0.04 0.00 60 1017.3
20260507221224 85 213 1.7 2.6 0.00 0.04 0.00 60 1017.5
20260507221103 85 214 1.7 2.6 0.00 0.04 0.00 60 1017.2
20260507221025 85 213 1.7 2.6 0.00 0.04 0.00 60 1017.3
20260507220904 85 214 0.9 1.7 0.00 0.04 0.00 60 1017.2
20260507220803 85 215 0.9 1.7 0.00 0.04 0.00 60 1017.2
20260507220703 85 218 0.9 1.7 0.00 0.04 0.00 60 1017.3
20260507220603 85 221 0.9 1.7 0.00 0.04 0.00 60 1017.2
20260507220503 85 221 0.9 1.7 0.00 0.04 0.00 60 1017.2
20260507220424 85 222 0.9 1.7 0.00 0.04 0.00 60 1017.2
20260507220303 85 225 0.0 1.7 0.00 0.04 0.00 60 1017.3
20260507220203 85 222 0.0 1.7 0.00 0.04 0.00 60 1017.1
20260507220024 85 219 0.0 0.9 0.00 0.04 0.00 60 1017.3
20260507215903 85 0 0.0 0.0 0.00 0.04 0.00 60 1017.3
20260507215803 85 0 0.0 0.0 0.00 0.04 0.00 60 1017.3
20260507215703 85 0 0.0 0.0 0.00 0.04 0.00 60 1017.3
20260507215603 85 0 0.0 0.0 0.00 0.04 0.00 60 1017.3
20260507215503 85 0 0.0 0.0 0.00 0.04 0.00 60 1017.3
20260507215403 85 0 0.0 0.0 0.00 0.04 0.00 60 1017.2
20260507215324 85 0 0.0 0.0 0.00 0.04 0.00 60 1017.1
20260507215205 85 0 0.0 0.0 0.00 0.04 0.00 60 1017.2
20260507215124 85 0 0.0 0.0 0.00 0.04 0.00 60 1017.2
20260507215003 85 0 0.0 0.0 0.00 0.04 0.00 60 1017.1
20260507214903 85 0 0.0 0.0 0.00 0.04 0.00 60 1017.1
20260507214803 85 0 0.0 0.0 0.00 0.04 0.00 60 1017.1
20260507214704 85 0 0.0 0.0 0.00 0.04 0.00 60 1017.2
20260507214603 85 0 0.0 0.0 0.00 0.04 0.00 60 1017.1
20260507214503 85 0 0.0 0.0 0.00 0.04 0.00 60 1017.1
20260507214403 85 0 0.0 0.0 0.00 0.04 0.00 60 1017.2
20260507214303 85 0 0.0 0.0 0.00 0.04 0.00 60 1017.3
20260507214203 85 0 0.0 0.0 0.00 0.04 0.00 60 1017.0
20260507214103 85 0 0.0 0.0 0.00 0.04 0.00 60 1017.0
20260507214024 85 0 0.0 0.0 0.00 0.04 0.00 60 1017.1
20260507213903 85 0 0.0 0.0 0.00 0.04 0.00 60 1017.1
20260507213803 85 0 0.0 0.0 0.00 0.04 0.00 60 1017.0
20260507213724 85 0 0.0 0.0 0.00 0.04 0.00 60 1017.0
20260507213603 85 0 0.0 0.0 0.00 0.04 0.00 60 1017.0
20260507213503 85 0 0.0 0.0 0.00 0.04 0.00 60 1017.1
20260507213403 85 0 0.0 0.0 0.00 0.04 0.00 60 1017.0
20260507213305 85 0 0.0 0.0 0.00 0.04 0.00 60 1017.0
20260507213203 85 0 0.0 0.0 0.00 0.04 0.00 60 1017.0
20260507213103 85 0 0.0 0.0 0.00 0.04 0.00 60 1017.1
20260507213003 85 0 0.0 0.0 0.00 0.04 0.00 60 1017.2
20260507212905 85 0 0.0 0.0 0.00 0.04 0.00 60 1017.2
20260507212803 85 0 0.0 0.0 0.00 0.04 0.00 60 1017.1
20260507212703 85 283 0.0 0.9 0.00 0.04 0.00 60 1017.1
20260507212603 85 266 0.0 0.9 0.00 0.04 0.00 60 1017.2
20260507212503 85 274 0.0 0.9 0.00 0.04 0.00 60 1017.2
20260507212404 85 278 0.0 0.9 0.00 0.04 0.00 60 1017.1
20260507212306 85 278 0.0 0.9 0.00 0.04 0.00 60 1016.9
20260507212203 85 280 0.0 0.9 0.00 0.04 0.00 60 1017.1
20260507212104 85 280 0.0 0.9 0.00 0.04 0.00 60 1017.1
20260507212005 85 282 0.0 0.9 0.00 0.04 0.00 60 1017.0
20260507211903 85 282 0.0 0.9 0.00 0.04 0.00 60 1017.0
20260507211804 85 282 0.0 0.9 0.00 0.04 0.00 60 1017.1
20260507211724 85 282 0.0 0.9 0.00 0.04 0.00 60 1017.1
20260507211604 85 291 0.0 0.9 0.00 0.04 0.00 60 1017.2
20260507211503 85 292 0.0 0.9 0.00 0.04 0.00 60 1017.0
20260507211404 85 292 0.9 0.9 0.00 0.04 0.00 60 1017.1
20260507211303 85 291 0.9 0.9 0.00 0.04 0.00 60 1017.1
20260507211224 85 290 0.9 1.7 0.00 0.04 0.00 60 1017.1
20260507211125 85 289 0.9 1.7 0.00 0.04 0.00 60 1017.1
20260507211004 85 288 0.9 1.7 0.00 0.04 0.00 60 1017.1
20260507210903 85 288 0.9 1.7 0.00 0.04 0.00 60 1017.1
20260507210825 85 287 0.9 1.7 0.00 0.04 0.00 60 1017.0
20260507210703 85 287 0.9 1.7 0.00 0.04 0.00 60 1017.0
20260507210624 85 286 0.9 1.7 0.00 0.04 0.00 60 1017.1
20260507210504 85 285 0.9 1.7 0.00 0.04 0.00 60 1017.0
20260507210403 85 285 0.9 1.7 0.00 0.04 0.00 60 1017.1
20260507210304 85 284 0.9 1.7 0.00 0.04 0.00 60 1017.1
20260507210204 85 284 0.9 1.7 0.00 0.04 0.00 60 1016.9
20260507210103 85 285 0.9 1.7 0.00 0.04 0.00 60 1016.9
20260507210004 85 285 0.9 1.7 0.00 0.04 0.00 60 1016.9
20260507205904 85 283 0.9 1.7 0.00 0.04 0.00 60 1017.1
20260507205803 85 287 0.9 1.7 0.00 0.04 0.00 60 1017.0
20260507205724 85 288 0.0 1.7 0.00 0.04 0.00 60 1017.0
20260507205603 85 297 0.0 0.9 0.00 0.04 0.00 60 1017.0
20260507205524 85 303 0.0 0.9 0.00 0.04 0.00 60 1017.0
20260507205404 85 303 0.0 0.9 0.00 0.04 0.00 60 1016.9
20260507205326 85 303 0.0 0.9 0.00 0.04 0.00 60 1016.9
20260507205203 85 303 0.0 0.9 0.00 0.04 0.00 60 1016.7
20260507205103 85 303 0.0 0.9 0.00 0.04 0.00 60 1016.6
20260507205003 85 303 0.0 0.9 0.00 0.04 0.00 60 1017.0
20260507204903 85 303 0.0 0.9 0.00 0.04 0.00 60 1016.9
20260507204803 85 304 0.0 0.9 0.00 0.04 0.00 60 1016.7
20260507204703 85 308 0.0 0.9 0.00 0.04 0.00 60 1016.9
20260507204604 85 311 0.0 0.9 0.00 0.04 0.00 60 1016.7
20260507204504 85 0 0.0 0.0 0.00 0.04 0.00 60 1016.9
20260507204404 85 0 0.0 0.0 0.00 0.04 0.00 60 1016.9
20260507204324 85 0 0.0 0.0 0.00 0.04 0.00 60 1016.7
20260507204203 85 0 0.0 0.0 0.00 0.04 0.00 60 1016.9
20260507204125 85 0 0.0 0.0 0.00 0.04 0.00 60 1017.0
20260507204003 85 0 0.0 0.0 0.00 0.04 0.00 60 1017.0
20260507203903 85 0 0.0 0.0 0.00 0.04 0.00 60 1016.9
20260507203803 85 0 0.0 0.0 0.00 0.05 0.00 60 1017.0
20260507203703 85 296 0.0 0.9 0.00 0.05 0.00 60 1016.9
20260507203605 85 296 0.0 0.9 0.00 0.05 0.00 60 1016.9
20260507203503 85 296 0.0 0.9 0.00 0.05 0.00 60 1016.9
20260507203404 85 296 0.0 0.9 0.00 0.05 0.00 60 1017.0
20260507203303 85 296 0.0 0.9 0.00 0.05 0.00 60 1016.9
20260507203203 85 296 0.0 0.9 0.00 0.05 0.00 60 1017.0
20260507203103 85 294 0.9 0.9 0.00 0.05 0.00 60 1017.0
20260507203003 85 294 0.9 0.9 0.00 0.05 0.00 60 1017.0
20260507202904 85 293 0.9 0.9 0.00 0.05 0.00 60 1017.2
20260507202824 85 291 0.9 1.7 0.00 0.05 0.00 60 1017.1
20260507202724 85 290 0.9 1.7 0.00 0.05 0.00 60 1017.0
20260507202603 85 288 0.9 1.7 0.00 0.05 0.00 60 1017.0
20260507202503 85 288 0.9 1.7 0.00 0.05 0.00 60 1017.0
20260507202403 85 288 0.9 1.7 0.00 0.05 0.00 60 1017.0
20260507202306 85 287 0.9 1.7 0.00 0.05 0.00 60 1017.1
20260507202204 85 286 0.9 1.7 0.00 0.06 0.00 60 1017.0
20260507202103 85 285 0.9 1.7 0.00 0.06 0.00 60 1017.0
20260507202004 85 284 0.9 1.7 0.00 0.06 0.00 60 1017.0
20260507201903 85 284 0.9 1.7 0.00 0.07 0.00 60 1017.0
20260507201803 85 285 0.9 1.7 0.00 0.07 0.00 60 1017.0
20260507201704 85 286 0.0 1.7 0.00 0.07 0.00 60 1017.0
20260507201604 85 286 0.0 0.9 0.00 0.07 0.00 60 1017.1
20260507201503 85 266 0.0 1.7 0.00 0.07 0.00 60 1017.3
20260507201404 85 262 0.0 1.7 0.00 0.07 0.00 60 1017.1
20260507201304 85 259 0.0 1.7 0.00 0.07 0.00 60 1017.1
20260507201225 85 252 0.0 1.7 0.00 0.08 0.00 60 1017.1
20260507201104 85 244 0.0 1.7 0.00 0.08 0.00 60 1017.1
20260507201024 85 238 0.9 1.7 0.00 0.08 0.00 60 1017.2
20260507200904 85 218 0.9 1.7 0.00 0.08 0.00 60 1017.2
20260507200803 85 191 0.9 2.6 0.00 0.08 0.00 60 1017.1
20260507200724 85 182 0.9 2.6 0.00 0.08 0.00 60 1017.4
20260507200603 85 160 0.9 2.6 0.00 0.08 0.00 60 1017.1
20260507200504 85 151 1.7 3.5 0.00 0.08 0.00 60 1017.1
20260507200424 85 143 1.7 3.5 0.00 0.08 0.00 60 1017.3
20260507200303 85 142 1.7 3.5 0.00 0.08 0.00 60 1017.3
20260507200203 85 142 1.7 3.5 0.00 0.08 0.00 60 1017.3
20260507200103 85 141 1.7 3.5 0.00 0.08 0.00 60 1017.3
20260507200004 85 141 1.7 3.5 0.00 0.08 0.00 60 1017.3
20260507195903 85 138 1.7 3.5 0.00 0.08 0.00 60 1017.3
20260507195805 85 132 0.9 3.5 0.00 0.08 0.00 60 1017.4
20260507195704 85 131 0.9 3.5 0.00 0.08 0.00 60 1017.2
20260507195603 85 138 0.9 3.5 0.00 0.08 0.00 60 1017.5
20260507195524 85 140 0.9 2.6 0.00 0.08 0.00 60 1017.4
20260507195403 85 170 0.0 2.6 0.00 0.08 0.00 60 1017.4
20260507195305 85 166 0.0 2.6 0.00 0.08 0.00 60 1017.4
20260507195204 85 141 0.0 1.7 0.00 0.08 0.00 60 1017.5
20260507195103 85 0 0.0 0.0 0.00 0.08 0.00 60 1017.4
20260507195003 85 0 0.0 0.0 0.00 0.08 0.00 60 1017.5
20260507194903 85 0 0.0 0.0 0.00 0.08 0.00 60 1017.3
20260507194804 85 0 0.0 0.0 0.00 0.08 0.00 60 1017.5
20260507194703 85 279 0.0 0.9 0.00 0.08 0.00 60 1017.4
20260507194603 85 280 0.0 0.9 0.00 0.08 0.00 60 1017.4
20260507194504 85 281 0.0 0.9 0.00 0.08 0.00 60 1017.4
20260507194404 85 281 0.0 0.9 0.00 0.08 0.00 60 1017.4
20260507194303 85 281 0.0 0.9 0.00 0.08 0.00 60 1017.4
20260507194204 85 281 0.0 0.9 0.00 0.08 0.00 60 1017.5
20260507194104 85 281 0.9 0.9 0.00 0.08 0.00 60 1017.5
20260507194003 85 281 0.9 0.9 0.00 0.08 0.00 60 1017.5
20260507193903 85 281 0.9 1.7 0.00 0.08 0.00 60 1017.5
20260507193804 85 281 0.9 1.7 0.00 0.08 0.00 60 1017.4
20260507193703 85 274 0.9 1.7 0.00 0.08 0.00 60 1017.5
20260507193603 85 266 0.9 2.6 0.00 0.08 0.00 60 1017.4
20260507193503 85 255 0.9 2.6 0.00 0.08 0.00 60 1017.4
20260507193424 85 251 0.9 2.6 0.00 0.08 0.00 60 1017.6
20260507193303 85 242 1.7 2.6 0.00 0.08 0.00 60 1017.5
20260507193204 85 240 1.7 2.6 0.00 0.08 0.00 60 1017.5
20260507193103 85 235 1.7 5.2 0.00 0.08 0.00 60 1017.7
20260507193003 85 235 1.7 5.2 0.00 0.08 0.00 60 1017.5
20260507192904 85 232 1.7 5.2 0.00 0.08 0.00 60 1017.5
20260507192803 85 233 1.7 5.2 0.00 0.08 0.00 60 1017.5
20260507192725 85 232 1.7 5.2 0.00 0.08 0.00 60 1017.5
20260507192603 85 228 1.7 5.2 0.00 0.08 0.00 60 1017.5
20260507192505 85 230 1.7 5.2 0.00 0.08 0.00 60 1017.4
20260507192403 85 226 1.7 5.2 0.00 0.08 0.00 60 1017.4
20260507192306 85 225 1.7 5.2 0.00 0.08 0.00 60 1017.4
20260507192204 85 222 2.6 5.2 0.00 0.08 0.00 60 1017.3
20260507192103 85 220 2.6 5.2 0.00 0.08 0.00 60 1017.5
20260507192003 85 217 2.6 5.2 0.00 0.08 0.00 60 1017.3
20260507191924 85 217 2.6 5.2 0.00 0.08 0.00 60 1017.4
20260507191803 85 212 2.6 5.2 0.00 0.08 0.00 60 1017.3
20260507191703 85 213 2.6 5.2 0.00 0.08 0.00 60 1017.5
20260507191603 85 213 2.6 5.2 0.00 0.08 0.00 60 1017.5
20260507191503 85 212 3.5 5.2 0.00 0.08 0.00 60 1017.6
20260507191425 85 211 3.5 5.2 0.00 0.08 0.00 60 1017.5
20260507191303 85 210 3.5 5.2 0.00 0.08 0.00 60 1017.5
20260507191203 85 208 3.5 5.2 0.00 0.08 0.00 60 1017.5
20260507191104 85 210 3.5 5.2 0.00 0.08 0.00 60 1017.4
20260507191003 85 209 3.5 5.2 0.00 0.08 0.00 60 1017.4
20260507190903 85 209 3.5 6.1 0.00 0.08 0.00 60 1017.4
20260507190803 85 208 3.5 6.1 0.00 0.08 0.00 60 1017.5
20260507190704 85 204 3.5 6.1 0.00 0.08 0.00 60 1017.5
20260507190624 85 201 3.5 6.1 0.00 0.08 0.00 60 1017.7
20260507190504 85 200 3.5 6.1 0.00 0.08 0.00 60 1017.6
20260507190403 85 201 3.5 6.1 0.00 0.08 0.00 60 1017.6
20260507190324 85 201 3.5 6.1 0.00 0.08 0.00 60 1017.7
20260507190203 85 205 2.6 6.1 0.00 0.08 0.00 60 1017.5
20260507190004 85 206 3.5 6.1 0.00 0.08 0.00 60 1017.6
20260507185904 85 203 2.6 3.5 0.00 0.08 0.00 60 1017.5
20260507185803 85 207 2.6 3.5 0.00 0.08 0.00 60 1017.7
20260507185703 85 206 2.6 3.5 0.00 0.08 0.00 60 1017.7
20260507185603 85 211 2.6 3.5 0.00 0.08 0.00 60 1017.6
20260507185525 85 211 2.6 3.5 0.00 0.08 0.00 60 1017.5
20260507185403 85 213 2.6 3.5 0.00 0.08 0.00 60 1017.6
20260507185305 85 212 2.6 3.5 0.00 0.08 0.00 60 1017.6
20260507185203 85 210 1.7 3.5 0.00 0.08 0.00 60 1017.6
20260507185103 85 206 1.7 3.5 0.00 0.08 0.00 60 1017.7
20260507185025 85 206 1.7 3.5 0.00 0.08 0.00 60 1017.4
20260507184903 85 207 1.7 3.5 0.00 0.08 0.00 60 1017.5
20260507184803 85 202 1.7 3.5 0.00 0.08 0.00 60 1017.6
20260507184703 85 205 1.7 3.5 0.00 0.08 0.00 60 1017.8
20260507184624 85 205 1.7 3.5 0.00 0.08 0.00 60 1017.7
20260507184504 85 206 1.7 3.5 0.00 0.08 0.00 60 1017.5
20260507184403 85 205 1.7 3.5 0.00 0.08 0.00 60 1017.6
20260507184304 85 210 1.7 2.6 0.00 0.08 0.00 60 1017.7
20260507184224 85 207 0.9 2.6 0.00 0.08 0.00 60 1017.5
20260507184103 85 220 0.9 2.6 0.00 0.08 0.00 60 1017.6
20260507184003 85 223 0.9 2.6 0.00 0.08 0.00 60 1017.7
20260507183903 85 228 0.9 1.7 0.00 0.08 0.00 60 1017.6
20260507183824 85 234 0.9 1.7 0.00 0.08 0.00 60 1017.6
20260507183703 85 234 0.9 1.7 0.00 0.08 0.00 60 1017.9
20260507183603 85 238 0.9 1.7 0.00 0.08 0.00 60 1017.6
20260507183503 85 249 0.9 1.7 0.00 0.08 0.00 60 1017.6
20260507183403 85 254 0.9 1.7 0.00 0.08 0.00 60 1017.8
20260507183305 85 255 0.9 1.7 0.00 0.08 0.00 60 1017.7
20260507183203 85 257 0.9 1.7 0.00 0.08 0.00 60 1017.6
20260507183103 85 262 0.9 1.7 0.00 0.08 0.00 60 1017.7
20260507183003 85 268 0.0 0.9 0.00 0.08 0.00 60 1017.6
20260507182903 85 269 0.0 0.9 0.00 0.08 0.08 60 1017.7
20260507182824 85 269 0.0 0.9 0.00 0.09 0.08 60 1017.6
20260507182703 85 272 0.0 0.9 0.00 0.09 0.08 60 1017.7
20260507182603 85 278 0.9 0.9 0.00 0.09 0.08 60 1017.5
20260507182503 85 281 0.9 0.9 0.00 0.09 0.08 60 1017.7
20260507182425 85 285 0.9 1.7 0.00 0.09 0.08 60 1017.7
20260507182306 85 286 0.9 1.7 0.00 0.09 0.08 60 1017.5
20260507182224 85 286 0.9 1.7 0.00 0.09 0.08 60 1017.8
20260507182103 85 285 0.9 1.7 0.00 0.09 0.08 60 1017.7
20260507182024 85 285 0.9 1.7 0.00 0.09 0.08 60 1017.6
20260507181903 85 285 0.9 1.7 0.00 0.09 0.08 60 1017.7
20260507181803 85 286 0.0 1.7 0.00 0.09 0.08 60 1017.7
20260507181703 85 276 0.0 1.7 0.00 0.09 0.08 60 1017.7
20260507181603 85 264 0.0 1.7 0.00 0.09 0.08 60 1017.5
20260507181503 85 240 0.9 1.7 0.00 0.09 0.08 60 1017.7
20260507181403 85 220 0.9 1.7 0.00 0.09 0.08 60 1017.7
20260507181303 85 218 0.9 1.7 0.00 0.09 0.08 60 1017.8
20260507181205 85 216 0.9 1.7 0.00 0.09 0.08 60 1017.7
20260507181103 85 214 0.9 1.7 0.00 0.09 0.08 60 1017.6
20260507181003 85 214 0.9 1.7 0.00 0.09 0.08 60 1017.6
20260507180924 85 212 0.9 1.7 0.00 0.09 0.08 60 1017.8
20260507180803 85 207 0.9 1.7 0.00 0.09 0.08 60 1017.6
20260507180703 85 200 0.9 1.7 0.00 0.09 0.08 60 1017.8
20260507180603 85 189 0.9 1.7 0.00 0.09 0.08 60 1017.7
20260507180503 85 178 0.9 1.7 0.00 0.09 0.08 60 1017.5
20260507180424 85 174 0.9 1.7 0.00 0.09 0.08 60 1017.6
20260507180303 85 166 0.9 1.7 0.00 0.09 0.08 60 1017.7
20260507180203 85 158 0.9 1.7 0.00 0.09 0.08 60 1017.5
20260507180103 85 156 0.9 1.7 0.00 0.09 0.08 60 1017.6
20260507180003 85 154 0.9 1.7 0.00 0.09 0.08 60 1017.5
20260507175903 85 150 0.9 1.7 0.00 0.09 0.08 60 1017.4
20260507175803 85 143 0.9 1.7 0.00 0.09 0.08 60 1017.7
20260507175703 85 135 0.9 1.7 0.00 0.09 0.08 60 1017.4
20260507175603 85 131 0.9 1.7 0.00 0.09 0.08 60 1017.5
20260507175503 85 127 0.9 1.7 0.00 0.09 0.08 60 1017.6
20260507175405 85 128 0.9 1.7 0.00 0.09 0.08 60 1017.5
20260507175306 85 128 0.9 1.7 0.00 0.09 0.08 60 1017.4
20260507175203 85 129 0.9 1.7 0.00 0.09 0.08 60 1017.6
20260507175124 85 128 0.9 1.7 0.00 0.09 0.08 60 1017.6
20260507175003 85 126 0.9 1.7 0.00 0.09 0.08 60 1017.6
20260507174924 85 126 0.9 1.7 0.00 0.09 0.08 60 1017.5
20260507174803 85 126 0.9 1.7 0.00 0.09 0.08 60 1017.6
20260507174724 85 129 0.9 1.7 0.00 0.09 0.08 60 1017.7
20260507174603 85 139 0.9 1.7 0.00 0.09 0.08 60 1017.5
20260507174503 85 144 0.9 1.7 0.00 0.09 0.08 60 1017.5
20260507174403 85 154 0.9 1.7 0.00 0.09 0.08 60 1017.4
20260507174303 85 168 0.9 1.7 0.00 0.09 0.08 60 1017.5
20260507174224 85 180 0.9 1.7 0.00 0.09 0.08 60 1017.5
20260507174103 85 187 0.9 0.9 0.00 0.09 0.08 60 1017.6
20260507174003 85 183 0.9 1.7 0.00 0.09 0.08 60 1017.6
20260507173903 85 179 0.9 1.7 0.00 0.09 0.08 60 1017.5
20260507173803 85 180 0.9 1.7 0.00 0.09 0.08 60 1017.7
20260507173703 85 181 0.9 1.7 0.00 0.09 0.08 60 1017.6
20260507173626 85 183 0.9 1.7 0.00 0.09 0.08 60 1017.6
20260507173504 85 185 0.9 1.7 0.00 0.09 0.08 60 1017.7
20260507173424 85 185 0.9 1.7 0.00 0.09 0.08 60 1017.7
20260507173324 85 185 0.9 1.7 0.00 0.09 0.08 60 1017.7
20260507173203 85 184 0.9 1.7 0.00 0.09 0.08 60 1017.7
20260507173103 85 183 0.9 1.7 0.00 0.09 0.08 60 1017.7
20260507173004 85 182 0.9 1.7 0.00 0.09 0.08 60 1017.6
20260507172903 85 185 0.9 1.7 0.00 0.09 0.08 60 1017.7
20260507172804 85 181 0.9 1.7 0.00 0.09 0.08 60 1017.7
20260507172703 85 176 0.9 1.7 0.00 0.09 0.08 60 1017.6
20260507172603 85 172 0.9 1.7 0.00 0.09 0.08 60 1017.6
20260507172503 85 170 0.9 1.7 0.00 0.09 0.08 60 1017.6
20260507172403 85 172 0.9 1.7 0.00 0.09 0.08 60 1017.7
20260507172307 85 176 0.9 1.7 0.00 0.09 0.08 60 1017.7
20260507172203 85 184 0.9 1.7 0.00 0.09 0.08 60 1017.8
20260507172103 85 188 0.9 1.7 0.00 0.09 0.08 60 1017.8
20260507172024 85 192 0.9 1.7 0.00 0.09 0.08 60 1017.9
20260507171903 85 201 1.7 1.7 0.00 0.09 0.08 60 1017.7
20260507171804 85 207 1.7 1.7 0.00 0.09 0.08 60 1018.0
20260507171704 85 212 0.9 1.7 0.00 0.09 0.08 60 1017.9
20260507171603 85 213 0.9 1.7 0.00 0.09 0.08 60 1017.7
20260507171503 85 217 0.9 1.7 0.00 0.09 0.08 60 1017.9
20260507171403 85 213 0.9 1.7 0.00 0.09 0.08 60 1017.8
20260507171304 85 206 0.9 1.7 0.00 0.09 0.08 60 1017.8
20260507171203 85 200 1.7 2.6 0.00 0.09 0.08 60 1017.8
20260507171103 85 191 1.7 2.6 0.00 0.09 0.08 60 1017.7
20260507171003 85 186 1.7 2.6 0.00 0.09 0.08 60 1017.9
20260507170903 85 181 1.7 2.6 0.00 0.09 0.08 60 1017.8
20260507170803 85 178 1.7 2.6 0.00 0.09 0.08 60 1017.8
20260507170703 85 178 1.7 2.6 0.00 0.09 0.08 60 1017.7
20260507170603 85 177 1.7 2.6 0.00 0.09 0.08 60 1017.8
20260507170503 85 176 1.7 2.6 0.00 0.09 0.08 60 1017.7
20260507170403 85 176 1.7 2.6 0.00 0.09 0.08 60 1017.7
20260507170303 85 178 1.7 2.6 0.00 0.09 0.08 60 1017.7
20260507170224 85 179 1.7 2.6 0.00 0.09 0.08 60 1017.7
20260507170126 85 179 1.7 2.6 0.00 0.09 0.08 60 1017.9
20260507170003 85 177 1.7 1.7 0.00 0.09 0.08 60 1017.8
20260507165903 85 173 1.7 1.7 0.00 0.09 0.08 60 1017.7
20260507165803 85 170 1.7 1.7 0.00 0.09 0.08 60 1017.7
20260507165703 85 167 1.7 1.7 0.00 0.09 0.08 60 1017.8
20260507165624 85 165 1.7 2.6 0.00 0.09 0.08 60 1017.6
20260507165524 85 163 1.7 2.6 0.00 0.09 0.08 60 1017.8
20260507165403 85 160 1.7 2.6 0.00 0.09 0.08 60 1017.7
20260507165306 85 161 1.7 2.6 0.00 0.09 0.08 60 1017.8
20260507165224 85 160 1.7 2.6 0.00 0.09 0.08 60 1017.7
20260507165103 85 159 1.7 2.6 0.00 0.09 0.08 60 1017.7
20260507165004 85 159 1.7 2.6 0.00 0.09 0.08 60 1017.7
20260507164904 85 163 1.7 2.6 0.00 0.09 0.08 60 1017.7
20260507164803 85 168 1.7 2.6 0.00 0.09 0.08 60 1017.7
20260507164703 85 175 0.9 2.6 0.00 0.09 0.08 60 1017.7
20260507164603 85 195 0.9 2.6 0.00 0.09 0.08 60 1017.8
20260507164505 85 227 0.9 2.6 0.00 0.09 0.08 60 1017.8
20260507164403 85 246 0.9 1.7 0.00 0.09 0.08 60 1017.6
20260507164303 85 261 0.9 1.7 0.00 0.09 0.08 60 1017.6
20260507164203 85 266 0.9 1.7 0.00 0.09 0.08 60 1017.8
20260507164103 85 266 0.9 1.7 0.00 0.09 0.08 60 1017.7
20260507164003 85 266 0.9 1.7 0.00 0.09 0.08 60 1017.7
20260507163903 85 258 0.9 1.7 0.00 0.09 0.08 60 1017.7
20260507163824 85 251 0.9 1.7 0.00 0.09 0.08 60 1017.6
20260507163703 85 239 0.9 1.7 0.00 0.09 0.08 60 1017.7
20260507163603 85 231 0.9 1.7 0.00 0.09 0.08 60 1017.7
20260507163503 85 216 0.9 1.7 0.00 0.09 0.08 60 1017.7
20260507163403 85 207 0.9 1.7 0.00 0.09 0.08 60 1017.8
20260507163324 85 208 0.9 1.7 0.00 0.09 0.08 60 1017.8
20260507163224 85 209 0.9 1.7 0.00 0.09 0.08 60 1017.8
20260507163103 85 210 0.9 1.7 0.00 0.09 0.08 60 1017.7
20260507163024 85 212 1.7 1.7 0.00 0.09 0.08 60 1017.7
20260507162926 85 216 1.7 1.7 0.00 0.09 0.08 60 1017.8
20260507162803 85 218 1.7 1.7 0.00 0.09 0.08 60 1017.8
20260507162703 85 219 0.9 1.7 0.00 0.09 0.08 60 1017.7
20260507162603 85 222 0.9 1.7 0.00 0.09 0.08 60 1017.7
20260507162503 85 228 0.9 1.7 0.00 0.09 0.08 60 1017.6
20260507162403 85 229 0.9 1.7 0.00 0.09 0.08 60 1017.8
20260507162306 85 230 0.9 1.7 0.00 0.09 0.08 60 1017.8
20260507162203 85 233 0.9 1.7 0.00 0.09 0.08 60 1017.7
20260507162103 85 243 0.0 1.7 0.00 0.09 0.08 60 1017.7
20260507162003 85 247 0.0 1.7 0.00 0.09 0.08 60 1017.5
20260507161903 85 262 0.0 0.9 0.00 0.09 0.08 60 1017.7
20260507161824 85 263 0.0 0.9 0.00 0.09 0.08 60 1017.6
20260507161703 85 263 0.0 0.9 0.00 0.09 0.08 60 1017.6
20260507161603 85 263 0.0 0.9 0.00 0.09 0.08 60 1017.5
20260507161503 85 261 0.0 0.9 0.00 0.09 0.08 60 1017.5
20260507161424 85 256 0.0 0.9 0.00 0.09 0.08 60 1017.7
20260507161303 85 256 0.0 0.9 0.00 0.09 0.08 60 1017.6
20260507161203 85 196 0.0 0.9 0.00 0.09 0.08 60 1017.8
20260507161103 85 183 0.0 0.9 0.00 0.09 0.08 60 1017.4
20260507161003 85 169 0.0 0.9 0.00 0.09 0.08 60 1017.6
20260507160924 85 169 0.0 0.9 0.00 0.09 0.08 60 1017.6
20260507160803 85 169 0.0 0.9 0.00 0.09 0.08 60 1017.5
20260507160703 85 169 0.9 1.7 0.00 0.09 0.08 60 1017.5
20260507160605 85 169 0.9 1.7 0.00 0.09 0.08 60 1017.5
20260507160503 85 165 0.9 2.6 0.00 0.09 0.08 60 1017.4
20260507160403 85 166 0.9 2.6 0.00 0.09 0.08 60 1017.5
20260507160303 85 167 0.9 2.6 0.00 0.09 0.08 60 1017.5
20260507160203 85 167 0.9 2.6 0.00 0.09 0.08 60 1017.4
20260507160103 85 167 0.9 2.6 0.00 0.09 0.08 60 1017.3
20260507160003 85 167 1.7 2.6 0.00 0.09 0.08 60 1017.5
20260507155903 85 167 1.7 2.6 0.00 0.09 0.08 60 1017.4
20260507155803 85 168 0.9 2.6 0.00 0.09 0.08 60 1017.4
20260507155703 85 169 0.9 2.6 0.00 0.09 0.08 60 1017.4
20260507155603 85 170 1.7 2.6 0.00 0.09 0.08 60 1017.4
20260507155503 85 174 0.9 2.6 0.00 0.09 0.08 60 1017.4
20260507155403 85 176 0.9 1.7 0.00 0.09 0.08 60 1017.5
20260507155306 85 177 0.9 1.7 0.00 0.09 0.08 60 1017.5
20260507155203 85 185 0.9 1.7 0.00 0.09 0.08 60 1017.4
20260507155103 85 192 0.9 1.7 0.00 0.09 0.08 60 1017.3
20260507155005 85 216 0.9 1.7 0.00 0.09 0.08 60 1017.5
20260507154903 85 221 0.9 1.7 0.00 0.09 0.08 60 1017.3
20260507154803 85 225 0.9 2.6 0.00 0.09 0.08 60 1017.2
20260507154724 85 234 0.9 2.6 0.00 0.09 0.08 60 1017.3
20260507154603 85 247 1.7 3.5 0.00 0.09 0.08 60 1017.4
20260507154524 85 248 1.7 3.5 0.00 0.09 0.08 60 1017.3
20260507154403 85 248 1.7 3.5 0.00 0.09 0.08 60 1017.2
20260507154303 85 247 1.7 3.5 0.00 0.09 0.08 60 1017.3
20260507154203 85 248 1.7 3.5 0.00 0.09 0.08 60 1017.3
20260507154103 85 249 2.6 3.5 0.00 0.09 0.08 60 1017.3
20260507154003 85 249 2.6 3.5 0.00 0.09 0.08 60 1017.2
20260507153903 85 252 2.6 3.5 0.00 0.09 0.08 60 1017.3
20260507153803 85 252 2.6 3.5 0.00 0.09 0.08 60 1017.2
20260507153703 85 251 2.6 3.5 0.00 0.09 0.08 60 1017.2
20260507153603 85 249 2.6 3.5 0.00 0.09 0.08 60 1017.2
20260507153504 85 246 2.6 2.6 0.00 0.09 0.08 60 1017.2
20260507153403 85 240 2.6 2.6 0.00 0.09 0.08 60 1017.0
20260507153303 85 239 1.7 2.6 0.00 0.09 0.08 60 1017.1
20260507153204 85 232 1.7 2.6 0.00 0.09 0.08 60 1016.9
20260507153103 85 222 1.7 2.6 0.00 0.09 0.08 60 1017.1
20260507153003 85 218 1.7 2.6 0.00 0.09 0.08 60 1017.1
20260507152903 85 216 1.7 2.6 0.00 0.09 0.08 60 1017.2
20260507152803 85 221 1.7 2.6 0.00 0.09 0.08 60 1017.1
20260507152703 85 227 1.7 2.6 0.00 0.09 0.08 60 1017.0
20260507152603 85 237 1.7 2.6 0.00 0.09 0.08 60 1017.1
20260507152503 85 247 1.7 2.6 0.00 0.09 0.08 60 1017.0
20260507152403 85 253 1.7 2.6 0.00 0.09 0.08 60 1017.1
20260507152306 85 256 1.7 2.6 0.00 0.09 0.08 60 1017.1
20260507152203 85 255 2.6 2.6 0.00 0.09 0.08 60 1017.0
20260507152103 85 256 2.6 2.6 0.00 0.09 0.08 60 1017.0
20260507152024 85 256 2.6 3.5 0.00 0.09 0.08 60 1017.1
20260507151924 85 257 2.6 3.5 0.00 0.09 0.08 60 1017.1
20260507151803 85 254 2.6 5.2 0.00 0.09 0.08 60 1017.0
20260507151703 85 254 2.6 5.2 0.00 0.09 0.08 60 1017.0
20260507151605 85 253 3.5 5.2 0.00 0.09 0.08 60 1017.0
20260507151504 85 251 3.5 5.2 0.00 0.09 0.08 60 1016.9
20260507151403 85 251 3.5 5.2 0.00 0.09 0.08 60 1017.1
20260507151303 85 250 3.5 5.2 0.00 0.09 0.08 60 1016.9
20260507151203 85 251 3.5 5.2 0.00 0.09 0.08 60 1016.9
20260507151103 85 251 3.5 5.2 0.00 0.09 0.08 60 1017.0
20260507151003 85 251 3.5 5.2 0.00 0.09 0.08 60 1017.0
20260507150903 85 250 3.5 5.2 0.00 0.09 0.08 60 1016.9
20260507150803 85 251 3.5 5.2 0.00 0.09 0.08 60 1016.9
20260507150704 85 253 3.5 5.2 0.00 0.09 0.08 60 1017.1
20260507150603 85 254 3.5 5.2 0.00 0.09 0.08 60 1017.1
20260507150504 85 256 3.5 5.2 0.00 0.09 0.08 60 1017.0
20260507150424 85 257 2.6 5.2 0.00 0.09 0.08 60 1016.9
20260507150303 85 257 2.6 3.5 0.00 0.09 0.08 60 1016.9
20260507150224 85 257 2.6 3.5 0.00 0.09 0.08 60 1017.0
20260507150104 85 255 2.6 3.5 0.00 0.09 0.08 60 1016.9
20260507150004 85 256 3.5 3.5 0.00 0.09 0.08 60 1016.7
20260507145903 85 255 3.5 3.5 0.00 0.09 0.08 60 1016.7
20260507145805 85 254 3.5 3.5 0.00 0.09 0.08 60 1016.9
20260507145704 85 254 3.5 3.5 0.00 0.09 0.08 60 1016.7
20260507145603 85 254 3.5 3.5 0.00 0.09 0.08 60 1016.6
20260507145503 85 254 3.5 3.5 0.00 0.09 0.08 60 1016.7
20260507145403 85 254 3.5 3.5 0.00 0.09 0.08 60 1016.7
20260507145306 85 253 3.5 3.5 0.00 0.09 0.08 60 1016.7
20260507145203 85 251 3.5 3.5 0.00 0.09 0.08 60 1016.7
20260507145103 85 252 3.5 3.5 0.00 0.09 0.08 60 1016.7
20260507145003 85 251 2.6 3.5 0.00 0.09 0.08 60 1016.4
20260507144903 85 251 2.6 3.5 0.00 0.09 0.08 60 1016.6
20260507144803 85 252 2.6 3.5 0.00 0.09 0.08 60 1016.7
20260507144703 85 248 2.6 3.5 0.00 0.09 0.08 60 1016.5
20260507144603 85 248 2.6 3.5 0.00 0.09 0.08 60 1016.5
20260507144524 85 248 2.6 3.5 0.00 0.09 0.08 60 1016.6
20260507144403 85 247 2.6 3.5 0.00 0.09 0.08 60 1016.7
20260507144304 85 248 1.7 3.5 0.00 0.09 0.08 60 1016.6
20260507144204 85 248 1.7 2.6 0.00 0.09 0.08 60 1016.9
20260507144104 85 247 1.7 2.6 0.00 0.09 0.08 60 1016.7
20260507144003 85 247 1.7 2.6 0.00 0.09 0.08 60 1016.6
20260507143903 85 249 1.7 2.6 0.00 0.09 0.08 60 1016.6
20260507143824 85 249 2.6 3.5 0.00 0.09 0.08 60 1016.5
20260507143724 85 251 2.6 3.5 0.00 0.09 0.08 60 1016.5
20260507143624 85 253 2.6 3.5 0.00 0.09 0.08 60 1016.5
20260507143503 85 251 2.6 3.5 0.00 0.09 0.08 60 1016.6
20260507143403 85 250 2.6 3.5 0.00 0.09 0.08 60 1016.6
20260507143303 85 249 2.6 3.5 0.00 0.09 0.08 60 1016.6
20260507143203 85 250 2.6 3.5 0.00 0.09 0.08 60 1016.6
20260507143103 85 249 2.6 3.5 0.00 0.09 0.08 60 1016.6
20260507143004 85 245 2.6 3.5 0.00 0.09 0.08 60 1016.6
20260507142924 85 242 2.6 3.5 0.00 0.09 0.08 60 1016.6
20260507142825 85 241 1.7 2.6 0.00 0.09 0.08 60 1016.5
20260507142704 85 238 1.7 2.6 0.00 0.09 0.08 60 1016.4
20260507142604 85 237 1.7 2.6 0.00 0.09 0.08 60 1016.5
20260507142504 85 237 1.7 2.6 0.00 0.09 0.08 60 1016.6
20260507142404 85 236 1.7 2.6 0.00 0.09 0.08 60 1016.4
20260507142306 85 231 1.7 2.6 0.00 0.09 0.08 60 1016.4
20260507142203 85 226 1.7 1.7 0.00 0.09 0.08 60 1016.5
20260507142103 85 222 1.7 2.6 0.00 0.09 0.08 60 1016.3
20260507142003 85 221 1.7 2.6 0.00 0.09 0.08 60 1016.3
20260507141903 85 220 1.7 2.6 0.00 0.09 0.08 60 1016.2
20260507141824 85 218 1.7 2.6 0.00 0.09 0.08 60 1016.3
20260507141703 85 215 1.7 2.6 0.00 0.09 0.08 60 1016.3
20260507141603 85 214 1.7 2.6 0.00 0.09 0.08 60 1016.2
20260507141503 85 212 1.7 2.6 0.00 0.09 0.08 60 1016.3
20260507141403 85 212 1.7 2.6 0.00 0.09 0.08 60 1016.4
20260507141304 85 214 1.7 2.6 0.00 0.09 0.08 60 1016.3
20260507141203 85 214 1.7 2.6 0.00 0.09 0.08 60 1016.2
20260507141103 85 214 1.7 2.6 0.00 0.09 0.08 60 1016.4
20260507141003 85 214 1.7 2.6 0.00 0.09 0.08 60 1016.4
20260507140903 85 211 1.7 2.6 0.00 0.09 0.08 60 1016.3
20260507140803 85 207 1.7 2.6 0.00 0.09 0.08 60 1016.2
20260507140703 85 204 1.7 2.6 0.00 0.09 0.08 60 1016.2
20260507140603 85 202 1.7 2.6 0.00 0.09 0.08 60 1016.3
20260507140504 85 200 1.7 2.6 0.00 0.09 0.08 60 1016.4
20260507140424 85 199 1.7 2.6 0.00 0.09 0.08 60 1016.3
20260507140307 85 190 1.7 1.7 0.00 0.09 0.08 60 1016.3
20260507140225 85 187 1.7 1.7 0.00 0.09 0.08 60 1016.3
20260507140103 85 187 1.7 1.7 0.00 0.09 0.08 60 1016.2
20260507140006 85 186 1.7 1.7 0.00 0.09 0.08 60 1016.3
20260507135924 85 188 0.9 1.7 0.00 0.09 0.08 60 1016.3
20260507135804 85 198 0.9 1.7 0.00 0.09 0.08 60 1016.1
20260507135704 85 197 0.9 1.7 0.00 0.09 0.08 60 1016.3
20260507135624 85 202 0.9 1.7 0.00 0.09 0.08 60 1016.3
20260507135504 85 213 0.9 1.7 0.00 0.09 0.08 60 1016.1
20260507135403 85 219 0.9 1.7 0.00 0.09 0.08 60 1016.2
20260507135306 85 230 0.9 1.7 0.00 0.09 0.08 60 1016.3
20260507135203 85 246 0.9 0.9 0.00 0.09 0.08 60 1016.3
20260507135103 85 224 0.9 2.6 0.00 0.09 0.08 60 1016.3
20260507135024 85 211 0.9 2.6 0.00 0.09 0.08 60 1016.2
20260507134903 85 204 0.9 2.6 0.00 0.09 0.08 60 1016.3
20260507134803 85 195 0.9 3.5 0.00 0.09 0.08 60 1016.2
20260507134705 85 187 1.7 3.5 0.00 0.09 0.08 60 1016.0
20260507134624 85 187 1.7 3.5 0.00 0.09 0.08 60 1016.1
20260507134503 85 184 1.7 3.5 0.00 0.09 0.08 60 1016.1
20260507134403 85 177 1.7 3.5 0.00 0.09 0.08 60 1016.1
20260507134303 85 169 1.7 3.5 0.00 0.09 0.08 60 1016.1
20260507134204 85 162 1.7 3.5 0.00 0.09 0.08 60 1016.2
20260507134124 85 162 1.7 3.5 0.00 0.09 0.08 60 1016.4
20260507134003 85 169 1.7 3.5 0.00 0.09 0.08 60 1016.2
20260507133903 85 169 1.7 3.5 0.00 0.09 0.08 60 1016.0
20260507133803 85 182 1.7 3.5 0.00 0.09 0.08 60 1016.2
20260507133705 85 187 1.7 3.5 0.00 0.09 0.08 60 1016.1
20260507133604 85 198 2.6 3.5 0.00 0.09 0.08 60 1016.3
20260507133524 85 196 2.6 3.5 0.00 0.09 0.08 60 1016.1
20260507133403 85 203 2.6 3.5 0.00 0.09 0.08 60 1016.1
20260507133303 85 208 2.6 3.5 0.00 0.09 0.08 60 1016.1
20260507133203 85 210 2.6 3.5 0.00 0.09 0.08 60 1016.2
20260507133104 85 209 2.6 3.5 0.00 0.09 0.08 60 1015.9
20260507133003 85 206 2.6 3.5 0.00 0.09 0.08 60 1016.1
20260507132903 85 210 2.6 3.5 0.00 0.09 0.08 60 1016.2
20260507132803 85 206 2.6 3.5 0.00 0.09 0.08 60 1016.0
20260507132703 85 204 2.6 3.5 0.00 0.09 0.08 60 1015.9
20260507132603 85 198 2.6 3.5 0.00 0.09 0.08 60 1016.0
20260507132503 85 200 2.6 3.5 0.00 0.09 0.08 60 1016.0
20260507132403 85 198 1.7 2.6 0.00 0.09 0.08 60 1016.1
20260507132307 85 202 1.7 2.6 0.00 0.09 0.08 60 1016.1
20260507132203 85 208 1.7 2.6 0.00 0.09 0.08 60 1016.0
20260507132103 85 214 1.7 2.6 0.00 0.09 0.08 60 1016.0
20260507132003 85 219 1.7 2.6 0.00 0.09 0.08 60 1016.1
20260507131905 85 219 1.7 3.5 0.00 0.09 0.08 60 1016.0
20260507131824 85 219 1.7 3.5 0.00 0.09 0.08 60 1015.9
20260507131703 85 220 1.7 3.5 0.00 0.09 0.08 60 1016.1
20260507131603 85 223 1.7 3.5 0.00 0.09 0.08 60 1016.0
20260507131524 85 223 2.6 3.5 0.00 0.09 0.08 60 1015.8
20260507131403 85 223 1.7 3.5 0.00 0.09 0.08 60 1016.0
20260507131303 85 223 2.6 3.5 0.00 0.09 0.08 60 1016.0
20260507131203 85 226 1.7 3.5 0.00 0.09 0.08 60 1016.0
20260507131105 85 229 1.7 3.5 0.00 0.09 0.08 60 1016.1
20260507131003 85 231 1.7 3.5 0.00 0.09 0.08 60 1015.8
20260507130924 85 230 1.7 3.5 0.00 0.09 0.08 60 1015.8
20260507130803 85 230 1.7 3.5 0.00 0.09 0.08 60 1015.8
20260507130703 85 237 1.7 3.5 0.00 0.09 0.08 60 1015.9
20260507130604 85 241 1.7 3.5 0.00 0.09 0.08 60 1015.8
20260507130524 85 243 1.7 3.5 0.00 0.09 0.08 60 1015.8
20260507130403 85 246 1.7 3.5 0.00 0.09 0.08 60 1015.6
20260507130303 85 248 2.6 3.5 0.00 0.09 0.08 60 1015.8
20260507130224 85 248 2.6 3.5 0.00 0.09 0.08 60 1015.8
20260507130103 85 241 2.6 3.5 0.00 0.09 0.08 60 1015.5
20260507130004 85 237 2.6 3.5 0.00 0.09 0.08 60 1015.6
20260507125924 85 237 2.6 3.5 0.00 0.09 0.08 60 1015.6
20260507125803 85 241 2.6 3.5 0.00 0.09 0.08 60 1015.8
20260507125704 85 243 1.7 3.5 0.00 0.09 0.08 60 1015.6
20260507125603 85 243 1.7 2.6 0.00 0.09 0.08 60 1015.6
20260507125504 85 245 1.7 2.6 0.00 0.09 0.08 60 1015.6
20260507125404 85 245 1.7 2.6 0.00 0.09 0.08 60 1015.5
20260507125306 85 241 1.7 2.6 0.00 0.09 0.08 60 1015.4
20260507125203 85 242 1.7 2.6 0.00 0.09 0.08 60 1015.6
20260507125103 85 248 1.7 2.6 0.00 0.09 0.08 60 1015.5
20260507125004 85 254 1.7 3.5 0.00 0.09 0.08 60 1015.4
20260507124903 85 257 2.6 3.5 0.00 0.09 0.08 60 1015.3
20260507124803 85 256 2.6 3.5 0.00 0.09 0.08 60 1015.5
20260507124703 85 255 2.6 3.5 0.00 0.09 0.08 60 1015.5
20260507124603 85 255 2.6 3.5 0.00 0.09 0.08 60 1015.6
20260507124524 85 255 2.6 3.5 0.00 0.09 0.08 60 1015.8
20260507124403 85 255 3.5 3.5 0.00 0.09 0.08 60 1015.5
20260507124303 85 257 3.5 3.5 0.00 0.09 0.08 60 1015.4
20260507124203 85 256 3.5 3.5 0.00 0.09 0.08 60 1015.5
20260507124103 85 257 3.5 3.5 0.00 0.09 0.08 60 1015.4
20260507124003 85 256 3.5 3.5 0.00 0.09 0.08 60 1015.4
20260507123903 85 255 3.5 3.5 0.00 0.09 0.08 60 1015.4
20260507123803 85 256 3.5 5.2 0.00 0.09 0.08 60 1015.5
20260507123705 85 256 3.5 5.2 0.00 0.09 0.08 60 1015.6
20260507123624 85 257 3.5 5.2 0.00 0.09 0.08 60 1015.4
20260507123503 85 253 3.5 5.2 0.00 0.09 0.08 60 1015.5
20260507123424 85 253 3.5 5.2 0.00 0.09 0.08 60 1015.4
20260507123303 85 249 3.5 5.2 0.00 0.09 0.08 60 1015.4
20260507123203 85 248 3.5 5.2 0.00 0.09 0.08 60 1015.5
20260507123103 85 250 3.5 5.2 0.00 0.09 0.08 60 1015.5
20260507123003 85 250 3.5 5.2 0.00 0.09 0.08 60 1015.4
20260507122903 85 249 3.5 5.2 0.00 0.09 0.08 60 1015.3
20260507122803 85 245 2.6 5.2 0.00 0.09 0.08 60 1015.3
20260507122705 85 246 2.6 5.2 0.00 0.09 0.08 60 1015.4
20260507122603 85 242 2.6 5.2 0.00 0.09 0.08 60 1015.3
20260507122503 85 244 2.6 5.2 0.00 0.09 0.08 60 1015.4
20260507122425 85 242 3.5 6.1 0.00 0.09 0.08 60 1015.4
20260507122306 85 247 3.5 6.1 0.00 0.09 0.08 60 1015.2
20260507122203 85 248 3.5 6.1 0.00 0.09 0.08 60 1015.3
20260507122104 85 245 3.5 6.1 0.00 0.09 0.08 60 1015.3
20260507122005 85 244 3.5 6.1 0.00 0.09 0.08 60 1015.3
20260507121903 85 243 4.3 6.1 0.00 0.09 0.08 60 1015.3
20260507121825 85 242 4.3 6.1 0.00 0.09 0.08 60 1015.4
20260507121703 85 241 4.3 6.1 0.00 0.09 0.08 60 1015.4
20260507121603 85 240 4.3 6.1 0.00 0.09 0.08 60 1015.3
20260507121504 85 240 4.3 6.1 0.00 0.09 0.08 60 1015.4
20260507121403 85 238 4.3 6.1 0.00 0.09 0.08 60 1015.5
20260507121303 85 235 4.3 6.1 0.00 0.09 0.08 60 1015.4
20260507121204 85 234 4.3 6.1 0.00 0.09 0.08 60 1015.4
20260507121103 85 235 4.3 6.1 0.00 0.09 0.08 60 1015.4
20260507121003 85 235 4.3 6.1 0.00 0.09 0.08 60 1015.4
20260507120903 85 235 4.3 6.1 0.00 0.09 0.08 60 1015.5
20260507120824 85 237 4.3 6.1 0.00 0.09 0.08 60 1015.4
20260507120703 85 240 4.3 6.1 0.00 0.09 0.08 60 1015.5
20260507120603 85 242 4.3 6.1 0.00 0.09 0.08 60 1015.5
20260507120503 85 244 4.3 6.1 0.00 0.09 0.08 60 1015.5
20260507120425 85 244 4.3 6.1 0.00 0.09 0.08 60 1015.4
20260507120303 85 244 4.3 5.2 0.00 0.09 0.08 60 1015.4
20260507120204 85 244 4.3 5.2 0.00 0.09 0.08 60 1015.4
20260507120103 85 244 3.5 5.2 0.00 0.09 0.08 60 1015.4
20260507120004 85 247 3.5 5.2 0.00 0.09 0.08 60 1015.4
20260507115903 85 245 3.5 5.2 0.00 0.09 0.08 60 1015.5
20260507115803 85 245 3.5 5.2 0.00 0.09 0.08 60 1015.4
20260507115703 85 244 3.5 5.2 0.00 0.09 0.08 60 1015.4
20260507115625 85 241 3.5 5.2 0.00 0.09 0.08 60 1015.3
20260507115524 85 236 3.5 5.2 0.00 0.09 0.08 60 1015.4
20260507115424 85 233 2.6 5.2 0.00 0.09 0.08 60 1015.2
20260507115307 85 229 2.6 5.2 0.00 0.09 0.08 60 1015.2
20260507115203 85 228 2.6 3.5 0.00 0.09 0.08 60 1015.3
20260507115103 85 223 2.6 5.2 0.00 0.09 0.08 60 1015.2
20260507115003 85 216 2.6 5.2 0.00 0.09 0.08 60 1015.1
20260507114925 85 213 2.6 5.2 0.00 0.09 0.08 60 1015.1
20260507114803 85 211 2.6 5.2 0.00 0.09 0.08 60 1015.0
20260507114724 85 209 2.6 5.2 0.00 0.09 0.08 60 1015.0
20260507114604 85 215 2.6 5.2 0.00 0.09 0.08 60 1015.1
20260507114503 85 219 2.6 5.2 0.00 0.09 0.08 60 1015.2
20260507114403 85 218 2.6 5.2 0.00 0.09 0.08 60 1015.2
20260507114304 85 218 2.6 5.2 0.00 0.09 0.08 60 1015.1
20260507114203 85 218 2.6 5.2 0.00 0.09 0.08 60 1015.2
20260507114124 85 218 2.6 5.2 0.00 0.09 0.08 60 1015.1
20260507114003 85 217 2.6 5.2 0.00 0.09 0.08 60 1015.1
20260507113924 85 215 3.5 5.2 0.00 0.09 0.08 60 1015.2
20260507113824 85 212 3.5 6.1 0.00 0.09 0.08 60 1015.1
20260507113703 85 209 3.5 6.1 0.00 0.09 0.08 60 1015.1
20260507113603 85 206 3.5 6.1 0.00 0.09 0.08 60 1015.1
20260507113503 85 205 3.5 6.1 0.00 0.09 0.08 60 1015.1
20260507113403 85 206 3.5 6.1 0.00 0.09 0.08 60 1015.1
20260507113303 85 206 3.5 6.1 0.00 0.09 0.08 60 1014.9
20260507113203 85 208 3.5 7.0 0.00 0.09 0.08 60 1014.9
20260507113124 85 211 3.5 7.0 0.00 0.09 0.08 60 1015.0
20260507113004 85 213 3.5 7.0 0.00 0.09 0.08 60 1014.9
20260507112924 85 215 3.5 7.0 0.00 0.09 0.08 60 1015.1
20260507112803 85 220 3.5 7.0 0.00 0.09 0.08 60 1014.9
20260507112705 85 224 3.5 7.0 0.00 0.09 0.08 60 1015.0
20260507112603 85 226 3.5 7.0 0.00 0.09 0.08 60 1015.0
20260507112503 85 228 4.3 7.0 0.00 0.09 0.08 60 1014.9
20260507112403 85 228 4.3 7.0 0.00 0.09 0.08 60 1015.0
20260507112306 85 232 3.5 7.0 0.00 0.09 0.08 60 1014.9
20260507112203 85 233 3.5 7.0 0.00 0.09 0.08 60 1015.1
20260507112103 85 235 3.5 7.0 0.00 0.09 0.08 60 1015.0
20260507112003 85 237 4.3 7.0 0.00 0.09 0.08 60 1015.1
20260507111904 85 239 3.5 7.0 0.00 0.09 0.08 60 1014.9
20260507111803 85 240 3.5 7.0 0.00 0.09 0.08 60 1015.1
20260507111703 85 244 3.5 7.0 0.00 0.09 0.08 60 1015.0
20260507111603 85 247 3.5 7.0 0.00 0.09 0.08 60 1015.0
20260507111504 85 248 3.5 6.1 0.00 0.09 0.08 60 1015.2
20260507111404 85 250 3.5 6.1 0.00 0.09 0.08 60 1015.0
20260507111303 85 250 3.5 6.1 0.00 0.09 0.08 60 1015.0
20260507111203 85 249 3.5 6.1 0.00 0.09 0.08 60 1014.9
20260507111105 85 245 3.5 6.1 0.00 0.09 0.08 60 1015.1
20260507111003 85 243 3.5 5.2 0.00 0.09 0.08 60 1014.9
20260507110903 85 243 3.5 5.2 0.00 0.09 0.08 60 1014.9
20260507110824 85 243 3.5 5.2 0.00 0.09 0.08 60 1015.0
20260507110703 85 242 3.5 5.2 0.00 0.09 0.08 60 1014.8
20260507110603 85 235 3.5 5.2 0.00 0.09 0.08 60 1014.8
20260507110504 85 235 3.5 5.2 0.00 0.09 0.08 60 1015.1
20260507110403 85 229 3.5 6.1 0.00 0.09 0.08 60 1015.0
20260507110303 85 226 3.5 6.1 0.00 0.09 0.08 60 1015.0
20260507110203 85 224 3.5 6.1 0.00 0.09 0.08 60 1015.1
20260507110103 85 223 3.5 6.1 0.00 0.09 0.08 60 1015.0
20260507110003 85 222 3.5 6.1 0.00 0.09 0.08 60 1015.0
20260507105924 85 223 4.3 7.0 0.00 0.09 0.08 60 1015.1
20260507105803 85 215 4.3 7.0 0.00 0.09 0.08 60 1015.0
20260507105704 85 215 4.3 7.0 0.00 0.09 0.08 60 1015.1
20260507105603 85 214 4.3 7.0 0.00 0.09 0.08 60 1015.1
20260507105504 85 216 3.5 7.0 0.00 0.09 0.08 60 1015.1
20260507105404 85 219 4.3 7.0 0.00 0.09 0.08 60 1015.1
20260507105306 85 221 4.3 7.0 0.00 0.09 0.08 60 1015.0
20260507105203 85 222 3.5 7.0 0.00 0.09 0.08 60 1015.0
20260507105124 85 222 4.3 7.8 0.00 0.09 0.08 60 1015.1
20260507105003 85 223 4.3 7.8 0.00 0.09 0.08 60 1014.8
20260507104903 85 221 4.3 7.8 0.00 0.09 0.08 60 1015.1
20260507104803 85 221 4.3 7.8 0.00 0.09 0.08 60 1015.1
20260507104724 85 220 5.2 7.8 0.00 0.09 0.08 60 1015.1
20260507104603 85 219 5.2 7.8 0.00 0.09 0.08 60 1015.1
20260507104504 85 216 5.2 7.8 0.00 0.09 0.08 60 1015.1
20260507104403 85 215 6.1 7.8 0.00 0.09 0.08 60 1015.1
20260507104303 85 211 6.1 7.8 0.00 0.09 0.08 60 1015.1
20260507104224 85 210 6.1 7.8 0.00 0.09 0.08 60 1015.2
20260507104103 85 209 6.1 7.8 0.00 0.09 0.08 60 1015.2
20260507104003 85 210 6.1 7.8 0.00 0.09 0.08 60 1015.2
20260507103903 85 209 6.1 7.8 0.00 0.09 0.08 60 1015.0
20260507103805 85 205 6.1 7.8 0.00 0.09 0.08 60 1015.2
20260507103703 85 205 5.2 7.8 0.00 0.09 0.08 60 1015.0
20260507103603 85 203 5.2 7.8 0.00 0.09 0.08 60 1015.2
20260507103503 85 204 5.2 7.8 0.00 0.09 0.08 60 1015.0
20260507103424 85 200 4.3 7.0 0.00 0.09 0.08 60 1015.1
20260507103303 85 197 4.3 7.0 0.00 0.09 0.08 60 1015.1
20260507103203 85 196 4.3 7.0 0.00 0.09 0.08 60 1015.0
20260507103103 85 198 4.3 7.0 0.00 0.09 0.08 60 1015.0
20260507103003 85 195 5.2 7.0 0.00 0.09 0.08 60 1015.0
20260507102903 85 196 5.2 7.8 0.00 0.09 0.08 60 1015.0
20260507102803 85 197 5.2 7.8 0.00 0.09 0.08 60 1014.9
20260507102703 85 200 5.2 8.7 0.00 0.09 0.08 60 1015.0
20260507102624 85 200 5.2 8.7 0.00 0.09 0.08 60 1014.9
20260507102503 85 199 5.2 8.7 0.00 0.09 0.08 60 1015.0
20260507102403 85 203 5.2 8.7 0.00 0.09 0.08 60 1015.1
20260507102306 85 204 5.2 8.7 0.00 0.09 0.08 60 1014.9
20260507102203 85 204 5.2 8.7 0.00 0.09 0.08 60 1015.0
20260507102125 85 202 5.2 8.7 0.00 0.09 0.08 60 1014.9
20260507102003 85 200 5.2 8.7 0.00 0.09 0.08 60 1015.1
20260507101903 85 199 5.2 8.7 0.00 0.09 0.08 60 1014.9
20260507101803 85 200 5.2 8.7 0.00 0.09 0.08 60 1015.0
20260507101703 85 198 4.3 7.8 0.00 0.09 0.08 60 1014.9
20260507101624 85 198 4.3 7.8 0.00 0.09 0.08 60 1015.0
20260507101503 85 203 5.2 7.8 0.00 0.09 0.08 60 1014.8
20260507101403 85 201 5.2 7.8 0.00 0.09 0.08 60 1014.8
20260507101303 85 201 5.2 7.8 0.00 0.09 0.08 60 1014.7
20260507101203 85 201 5.2 7.8 0.00 0.09 0.08 60 1014.8
20260507101103 85 201 5.2 7.8 0.00 0.09 0.08 60 1014.6
20260507101024 85 200 5.2 7.8 0.00 0.09 0.08 60 1014.8
20260507100903 85 200 5.2 7.8 0.00 0.09 0.08 60 1014.7
20260507100804 85 197 5.2 7.8 0.00 0.09 0.08 60 1014.7
20260507100703 85 197 6.1 7.8 0.00 0.09 0.08 60 1014.8
20260507100603 85 198 5.2 7.0 0.00 0.09 0.08 60 1014.7
20260507100504 85 195 5.2 7.0 0.00 0.09 0.08 60 1015.0
20260507100403 85 197 5.2 7.0 0.00 0.09 0.08 60 1014.8
20260507100303 85 196 5.2 7.0 0.00 0.09 0.08 60 1014.9
20260507100203 85 198 5.2 7.0 0.00 0.09 0.08 60 1014.7
20260507100103 85 196 5.2 7.8 0.00 0.09 0.08 60 1014.7
20260507100003 85 189 5.2 7.8 0.00 0.09 0.08 60 1014.7
20260507095924 85 192 5.2 7.8 0.00 0.09 0.08 60 1014.6
20260507095803 85 198 5.2 7.8 0.00 0.09 0.08 60 1014.7
20260507095703 85 197 5.2 7.8 0.00 0.09 0.08 60 1014.7
20260507095603 85 200 5.2 7.8 0.00 0.09 0.08 60 1014.7
20260507095503 85 202 5.2 7.8 0.00 0.09 0.08 60 1014.6
20260507095424 85 202 5.2 7.8 0.00 0.09 0.08 60 1014.5
20260507095305 85 199 5.2 7.8 0.00 0.09 0.08 60 1014.6
20260507095203 85 201 5.2 7.8 0.00 0.09 0.08 60 1014.7
20260507095103 85 205 4.3 7.8 0.00 0.09 0.08 60 1014.6
20260507095003 85 208 4.3 7.8 0.00 0.09 0.08 60 1014.6
20260507094904 85 204 4.3 7.8 0.00 0.09 0.08 60 1014.6
20260507094803 85 195 4.3 7.0 0.00 0.09 0.08 60 1014.7
20260507094724 85 185 4.3 7.8 0.00 0.09 0.08 60 1014.5
20260507094603 85 160 4.3 7.8 0.00 0.09 0.08 60 1014.7
20260507094503 85 149 5.2 7.8 0.00 0.09 0.08 60 1014.7
20260507094403 85 137 5.2 9.6 0.00 0.09 0.08 60 1014.7
20260507094303 85 135 6.1 9.6 0.00 0.09 0.08 60 1014.7
20260507094203 85 133 6.1 9.6 0.00 0.09 0.08 60 1014.7
20260507094103 85 132 6.1 9.6 0.00 0.09 0.08 60 1014.6
20260507094003 85 127 6.1 9.6 0.00 0.09 0.08 60 1014.7
20260507093903 85 125 6.1 9.6 0.00 0.09 0.08 60 1014.6
20260507093803 85 124 6.1 9.6 0.00 0.09 0.08 60 1014.8
20260507093703 85 127 6.1 9.6 0.00 0.09 0.08 60 1014.6
20260507093603 85 133 5.2 9.6 0.00 0.09 0.08 60 1014.6
20260507093503 85 145 5.2 9.6 0.00 0.09 0.08 60 1014.7
20260507093403 85 153 5.2 8.7 0.00 0.09 0.08 60 1014.6
20260507093303 85 157 5.2 8.7 0.00 0.09 0.08 60 1014.8
20260507093204 85 157 5.2 7.0 0.00 0.09 0.08 60 1014.5
20260507093103 85 160 5.2 7.8 0.00 0.09 0.08 60 1014.5
20260507093024 85 163 5.2 7.8 0.00 0.09 0.08 60 1014.8
20260507092903 85 173 5.2 7.8 0.00 0.09 0.08 60 1014.8
20260507092824 85 173 5.2 7.8 0.00 0.09 0.08 60 1014.8
20260507092703 85 167 5.2 7.8 0.00 0.09 0.08 60 1014.6
20260507092603 85 167 5.2 7.8 0.00 0.09 0.08 60 1014.9
20260507092503 85 165 5.2 7.8 0.00 0.09 0.08 60 1014.7
20260507092403 85 164 5.2 7.8 0.00 0.09 0.08 60 1014.6
20260507092307 85 166 5.2 7.8 0.00 0.09 0.08 60 1014.8
20260507092203 85 166 5.2 7.8 0.00 0.09 0.08 60 1014.6
20260507092103 85 167 5.2 7.8 0.00 0.09 0.08 60 1014.6
20260507092003 85 169 4.3 7.0 0.00 0.09 0.08 60 1014.7
20260507091903 85 169 5.2 7.0 0.00 0.09 0.08 60 1014.7
20260507091803 85 166 5.2 7.0 0.00 0.09 0.08 60 1014.7
20260507091703 85 169 5.2 7.0 0.00 0.09 0.08 60 1014.8
20260507091604 85 168 5.2 7.0 0.00 0.09 0.08 60 1014.8
20260507091503 85 166 5.2 7.0 0.00 0.09 0.08 60 1014.9
20260507091403 85 170 5.2 7.0 0.00 0.09 0.08 60 1014.7
20260507091324 85 164 5.2 8.7 0.00 0.09 0.08 60 1014.9
20260507091203 85 164 5.2 8.7 0.00 0.09 0.08 60 1014.7
20260507091103 85 166 5.2 8.7 0.00 0.09 0.08 60 1014.8
20260507091024 85 165 5.2 8.7 0.00 0.09 0.08 60 1014.7
20260507090903 85 165 5.2 8.7 0.00 0.09 0.08 60 1014.8
20260507090803 85 166 5.2 8.7 0.00 0.09 0.08 60 1014.9
20260507090703 85 162 5.2 8.7 0.00 0.09 0.08 60 1014.9
20260507090604 85 166 6.1 8.7 0.00 0.09 0.08 60 1014.8
20260507090503 85 169 6.1 8.7 0.00 0.09 0.08 60 1014.9
20260507090403 85 171 6.1 8.7 0.00 0.09 0.08 60 1015.0
20260507090303 85 176 5.2 7.0 0.00 0.09 0.08 60 1015.1
20260507090203 85 178 5.2 7.8 0.00 0.09 0.08 60 1014.8
20260507090103 85 179 5.2 7.8 0.00 0.09 0.08 60 1014.9
20260507090025 85 181 5.2 7.8 0.00 0.09 0.08 60 1014.9
20260507085924 85 186 4.3 7.8 0.00 0.09 0.08 60 1014.8
20260507085804 85 189 4.3 7.8 0.00 0.09 0.08 60 1015.0
20260507085703 85 197 4.3 7.8 0.00 0.09 0.08 60 1015.0
20260507085604 85 199 4.3 7.8 0.00 0.09 0.08 60 1014.9
20260507085503 85 191 4.3 7.8 0.00 0.09 0.08 60 1015.1
20260507085403 85 195 4.3 7.8 0.00 0.09 0.08 60 1015.0
20260507085306 85 193 5.2 7.8 0.00 0.09 0.08 60 1015.0
20260507085203 85 193 4.3 7.8 0.00 0.09 0.08 60 1015.1
20260507085103 85 189 5.2 7.8 0.00 0.09 0.08 60 1015.1
20260507085004 85 186 5.2 7.8 0.00 0.09 0.08 60 1015.0
20260507084903 85 184 5.2 7.8 0.00 0.09 0.08 60 1015.1
20260507084805 85 183 6.1 7.8 0.00 0.09 0.08 60 1015.1
20260507084703 85 182 6.1 7.8 0.00 0.09 0.08 60 1015.3
20260507084624 85 185 5.2 7.8 0.00 0.09 0.08 60 1015.2
20260507084503 85 190 5.2 7.8 0.00 0.09 0.08 60 1015.3
20260507084403 85 188 5.2 7.8 0.00 0.09 0.08 60 1015.3
20260507084303 85 186 5.2 7.8 0.00 0.09 0.08 60 1015.2
20260507084203 85 188 5.2 7.8 0.00 0.09 0.08 60 1015.1
20260507084104 85 193 4.3 7.8 0.00 0.09 0.08 60 1015.3
20260507084003 85 198 4.3 7.8 0.00 0.09 0.08 60 1015.4
20260507083903 85 199 4.3 7.8 0.00 0.09 0.08 60 1015.5
20260507083803 85 203 4.3 7.8 0.00 0.09 0.08 60 1015.5
20260507083703 85 202 3.5 7.0 0.00 0.09 0.08 60 1015.4
20260507083603 85 198 3.5 7.0 0.00 0.09 0.08 60 1015.4
20260507083503 85 195 3.5 7.0 0.00 0.09 0.08 60 1015.3
20260507083403 85 187 3.5 7.0 0.00 0.09 0.08 60 1015.3
20260507083324 85 183 3.5 7.0 0.00 0.09 0.08 60 1015.4
20260507083203 85 176 3.5 7.0 0.00 0.09 0.08 60 1015.4
20260507083126 85 177 3.5 7.0 0.00 0.09 0.08 60 1015.6
20260507083004 85 164 3.5 7.0 0.00 0.09 0.08 60 1015.5
20260507082903 85 160 3.5 7.0 0.00 0.09 0.08 60 1015.6
20260507082803 85 155 3.5 7.0 0.00 0.09 0.08 60 1015.5
20260507082703 85 153 3.5 6.1 0.00 0.09 0.08 60 1015.8
20260507082604 85 149 3.5 6.1 0.00 0.09 0.08 60 1015.3
20260507082503 85 146 3.5 6.1 0.00 0.09 0.08 60 1015.6
20260507082403 85 149 3.5 6.1 0.00 0.09 0.08 60 1015.4
20260507082306 85 147 3.5 6.1 0.00 0.09 0.08 60 1015.6
20260507082203 85 153 3.5 6.1 0.00 0.09 0.08 60 1015.5
20260507082103 85 154 3.5 6.1 0.00 0.09 0.08 60 1015.6
20260507082004 85 160 3.5 6.1 0.00 0.09 0.08 60 1015.5
20260507081924 85 161 2.6 6.1 0.00 0.09 0.08 60 1015.8
20260507081804 85 154 2.6 5.2 0.00 0.09 0.08 60 1015.8
20260507081703 85 144 2.6 3.5 0.00 0.09 0.08 60 1015.9
20260507081603 85 148 2.6 3.5 0.00 0.09 0.08 60 1015.8
20260507081503 85 162 2.6 3.5 0.00 0.09 0.08 60 1015.9
20260507081404 85 176 1.7 3.5 0.00 0.09 0.08 60 1015.8
20260507081304 85 188 1.7 3.5 0.00 0.09 0.08 60 1015.9
20260507081203 85 185 1.7 3.5 0.00 0.09 0.08 60 1016.0
20260507081104 85 180 1.7 3.5 0.00 0.09 0.08 60 1015.9
20260507081003 85 179 1.7 3.5 0.00 0.09 0.08 60 1015.9
20260507080903 85 185 1.7 3.5 0.00 0.09 0.08 60 1016.1
20260507080803 85 185 2.6 3.5 0.00 0.09 0.08 60 1016.0
20260507080703 85 192 2.6 3.5 0.00 0.09 0.08 60 1016.1
20260507080624 85 196 2.6 3.5 0.00 0.09 0.08 60 1016.1
20260507080524 85 195 2.6 3.5 0.00 0.09 0.08 60 1016.0
20260507080403 85 195 2.6 3.5 0.00 0.09 0.08 60 1016.3
20260507080303 85 194 2.6 5.2 0.00 0.09 0.08 60 1016.2
20260507080204 85 192 3.5 5.2 0.00 0.09 0.08 60 1016.3
20260507080103 85 191 2.6 5.2 0.00 0.09 0.08 60 1016.4
20260507080004 85 189 3.5 5.2 0.00 0.09 0.08 60 1016.3
20260507075903 85 186 3.5 5.2 0.00 0.09 0.08 60 1016.4
20260507075803 85 186 3.5 5.2 0.00 0.09 0.08 60 1016.5
20260507075703 85 180 3.5 5.2 0.00 0.09 0.08 60 1016.4
20260507075604 85 174 3.5 6.1 0.00 0.09 0.08 60 1016.3
20260507075504 85 167 4.3 7.0 0.00 0.09 0.08 60 1016.4
20260507075403 85 164 4.3 7.0 0.00 0.09 0.08 60 1016.5
20260507075306 85 165 4.3 7.0 0.00 0.09 0.08 60 1016.6
20260507075203 85 164 4.3 7.0 0.00 0.09 0.08 60 1016.5
20260507075103 85 162 3.5 7.0 0.00 0.09 0.08 60 1016.4
20260507075004 85 163 4.3 7.0 0.00 0.09 0.08 60 1016.6
20260507074903 85 165 4.3 7.0 0.00 0.09 0.08 60 1016.5
20260507074803 85 168 4.3 7.0 0.01 0.09 0.08 60 1016.5
20260507074703 85 168 4.3 7.0 0.01 0.09 0.08 60 1016.4
20260507074604 85 171 3.5 7.0 0.01 0.09 0.08 60 1016.5
20260507074503 85 175 3.5 5.2 0.01 0.09 0.08 60 1016.4
20260507074403 85 179 3.5 5.2 0.01 0.09 0.08 60 1016.6
20260507074303 85 183 3.5 5.2 0.01 0.09 0.08 60 1016.5
20260507074203 85 179 3.5 5.2 0.01 0.09 0.08 60 1016.6
20260507074125 85 178 4.3 7.0 0.02 0.09 0.08 60 1016.6
20260507074004 85 175 4.3 7.0 0.03 0.09 0.08 60 1016.7
20260507073904 85 176 4.3 7.0 0.03 0.09 0.08 60 1016.7
20260507073804 85 171 3.5 7.0 0.03 0.09 0.08 60 1016.6
20260507073703 85 172 3.5 7.0 0.04 0.09 0.08 60 1016.9
20260507073603 85 175 3.5 7.0 0.04 0.09 0.08 60 1016.6
20260507073503 85 176 3.5 7.0 0.04 0.09 0.08 60 1016.7
20260507073403 85 176 3.5 7.0 0.04 0.09 0.08 60 1016.6
20260507073303 85 179 3.5 7.0 0.04 0.09 0.08 60 1016.7
20260507073203 85 181 3.5 7.0 0.04 0.09 0.08 60 1016.7
20260507073124 85 186 3.5 7.0 0.04 0.09 0.08 60 1016.7
20260507073004 85 190 2.6 5.2 0.04 0.09 0.08 60 1016.7
20260507072924 85 189 2.6 5.2 0.04 0.09 0.08 60 1016.7
20260507072803 85 185 3.5 5.2 0.04 0.09 0.08 60 1016.9
20260507072703 85 181 3.5 6.1 0.04 0.09 0.08 60 1016.9
20260507072603 85 178 3.5 6.1 0.04 0.09 0.08 60 1016.7
20260507072503 85 175 3.5 6.1 0.04 0.09 0.08 60 1016.7
20260507072403 85 173 4.3 6.1 0.04 0.09 0.08 60 1017.0
20260507072306 85 169 4.3 6.1 0.04 0.09 0.08 60 1016.7
20260507072224 85 167 4.3 6.1 0.04 0.09 0.08 60 1016.5
20260507072105 85 163 4.3 6.1 0.04 0.09 0.08 60 1016.9
20260507072003 85 162 4.3 6.1 0.04 0.09 0.08 60 1016.6
20260507071903 85 162 4.3 6.1 0.04 0.09 0.08 60 1016.9
20260507071803 85 166 4.3 6.1 0.04 0.09 0.08 60 1016.6
20260507071703 85 169 4.3 6.1 0.04 0.09 0.08 60 1016.7
20260507071604 85 172 4.3 6.1 0.04 0.09 0.08 60 1016.7
20260507071504 85 177 3.5 6.1 0.04 0.09 0.08 60 1016.6
20260507071403 85 182 3.5 6.1 0.04 0.09 0.08 60 1016.9
20260507071324 85 183 3.5 6.1 0.04 0.09 0.08 60 1016.7
20260507071203 85 190 3.5 6.1 0.04 0.09 0.08 60 1016.7
20260507071124 85 195 2.6 6.1 0.04 0.09 0.08 60 1016.7
20260507071003 85 216 2.6 5.2 0.04 0.09 0.08 60 1016.9
20260507070904 85 230 2.6 5.2 0.04 0.09 0.08 60 1016.6
20260507070803 85 234 2.6 5.2 0.04 0.09 0.08 60 1016.9
20260507070724 85 235 2.6 5.2 0.04 0.09 0.08 60 1017.1
20260507070603 85 243 2.6 5.2 0.04 0.09 0.08 60 1016.7
20260507070504 85 248 3.5 5.2 0.04 0.09 0.08 60 1016.9
20260507070403 85 250 3.5 5.2 0.04 0.09 0.08 60 1016.9
20260507070303 85 253 3.5 5.2 0.04 0.09 0.08 60 1016.9
20260507070203 85 252 3.5 5.2 0.04 0.09 0.08 60 1016.9
20260507070124 85 251 3.5 6.1 0.04 0.09 0.08 60 1016.9
20260507070007 85 249 3.5 6.1 0.04 0.09 0.08 60 1016.7
20260507065903 85 249 3.5 6.1 0.04 0.09 0.08 60 1016.7
20260507065803 85 249 3.5 6.1 0.04 0.09 0.08 60 1017.0
20260507065724 85 251 3.5 6.1 0.04 0.09 0.08 60 1016.7
20260507065604 85 252 3.5 7.0 0.04 0.09 0.08 60 1016.9
20260507065503 85 249 4.3 7.0 0.04 0.09 0.08 60 1016.6
20260507065424 85 250 4.3 7.0 0.04 0.09 0.08 60 1016.7
20260507065306 85 254 4.3 7.0 0.04 0.09 0.08 60 1016.9
20260507065203 85 257 4.3 8.7 0.04 0.09 0.08 60 1016.6
20260507065103 85 258 4.3 8.7 0.04 0.09 0.08 60 1016.9
20260507065003 85 263 5.2 14.8 0.04 0.09 0.08 60 1016.9
20260507064905 85 264 6.1 14.8 0.04 0.09 0.08 60 1016.9
20260507064803 85 265 7.0 14.8 0.03 0.08 0.07 60 1016.7
20260507064703 85 263 7.8 14.8 0.03 0.08 0.07 60 1016.7
20260507064603 85 264 7.8 14.8 0.03 0.08 0.07 60 1016.7
20260507064504 85 268 8.7 14.8 0.03 0.08 0.07 60 1016.9
20260507064403 85 268 9.6 14.8 0.03 0.08 0.07 60 1016.6
20260507064303 85 268 10.4 14.8 0.03 0.08 0.07 60 1016.9
20260507064204 85 267 10.4 14.8 0.03 0.08 0.07 60 1016.6
20260507064104 85 268 11.3 14.8 0.02 0.07 0.06 60 1016.7
20260507064003 85 266 11.3 14.8 0.01 0.06 0.06 60 1017.0
20260507063903 85 267 11.3 13.9 0.01 0.06 0.05 60 1016.9
20260507063803 85 265 11.3 13.9 0.01 0.06 0.05 60 1016.9
20260507063703 85 266 10.4 13.0 0.00 0.05 0.04 60 1016.6
20260507063603 85 264 10.4 13.0 0.00 0.05 0.04 60 1016.9
20260507063524 85 263 10.4 13.0 0.00 0.05 0.04 60 1016.7
20260507063403 85 262 10.4 13.0 0.00 0.05 0.04 60 1016.7
20260507063304 85 264 10.4 13.9 0.00 0.05 0.04 60 1016.7
20260507063203 85 263 10.4 13.9 0.00 0.05 0.04 60 1016.7
20260507063103 85 262 10.4 13.9 0.00 0.05 0.04 60 1016.7
20260507063003 85 262 10.4 13.9 0.00 0.05 0.04 60 1016.7
20260507062924 85 263 10.4 13.9 0.00 0.05 0.04 60 1016.7
20260507062803 85 262 10.4 14.8 0.00 0.05 0.04 60 1016.6
20260507062704 85 260 10.4 14.8 0.00 0.05 0.04 60 1016.6
20260507062603 85 259 10.4 14.8 0.00 0.05 0.04 60 1016.7
20260507062503 85 259 10.4 14.8 0.00 0.05 0.04 60 1016.9
20260507062403 85 257 9.6 14.8 0.00 0.05 0.04 60 1016.6
20260507062306 85 255 8.7 14.8 0.00 0.05 0.04 60 1016.9
20260507062203 85 253 7.8 14.8 0.00 0.05 0.04 60 1017.0
20260507062103 85 253 7.8 14.8 0.00 0.05 0.04 60 1016.7
20260507062003 85 252 7.0 14.8 0.00 0.05 0.04 60 1016.7
20260507061903 85 247 7.0 14.8 0.00 0.05 0.04 60 1016.9
20260507061803 85 243 6.1 11.3 0.00 0.05 0.04 60 1017.0
20260507061703 85 243 5.2 8.7 0.00 0.05 0.04 60 1016.9
20260507061603 85 242 4.3 8.7 0.00 0.05 0.04 60 1017.0
20260507061503 85 238 4.3 8.7 0.00 0.05 0.04 60 1017.1
20260507061403 85 237 4.3 6.1 0.00 0.05 0.04 60 1017.1
20260507061303 85 238 4.3 6.1 0.00 0.05 0.04 60 1017.1
20260507061205 85 239 4.3 7.0 0.00 0.05 0.04 60 1017.0
20260507061103 85 240 4.3 7.0 0.00 0.05 0.04 60 1017.1
20260507061024 85 243 4.3 7.0 0.00 0.05 0.04 60 1017.1
20260507060903 85 248 4.3 7.0 0.00 0.05 0.04 60 1017.0
20260507060803 85 253 4.3 7.0 0.00 0.05 0.04 60 1017.2
20260507060724 85 256 4.3 7.0 0.00 0.05 0.04 60 1017.0
20260507060603 85 260 4.3 7.0 0.00 0.05 0.04 60 1017.1
20260507060503 85 262 4.3 7.0 0.00 0.05 0.04 60 1017.2
20260507060403 85 267 4.3 7.0 0.00 0.05 0.04 60 1017.2
20260507060303 85 274 3.5 7.0 0.00 0.05 0.04 60 1017.0
20260507060203 85 276 3.5 7.0 0.00 0.05 0.04 60 1017.0
20260507060103 85 260 3.5 7.0 0.00 0.05 0.04 60 1017.0
20260507060003 85 248 3.5 7.0 0.00 0.05 0.04 60 1017.1
20260507055903 85 239 2.6 6.1 0.00 0.05 0.04 60 1017.2
20260507055803 85 222 2.6 5.2 0.00 0.05 0.04 60 1017.0
20260507055703 85 196 2.6 5.2 0.00 0.05 0.04 60 1017.1
20260507055605 85 184 2.6 5.2 0.00 0.05 0.04 60 1017.0
20260507055503 85 181 3.5 5.2 0.00 0.05 0.04 60 1017.0
20260507055403 85 183 3.5 6.1 0.00 0.05 0.04 60 1017.1
20260507055306 85 187 3.5 6.1 0.00 0.05 0.04 60 1017.1
20260507055203 85 190 3.5 6.1 0.00 0.05 0.04 60 1017.1
20260507055103 85 189 4.3 7.0 0.00 0.05 0.04 60 1017.1
20260507055003 85 183 4.3 7.8 0.00 0.05 0.04 60 1017.3
20260507054903 85 178 4.3 7.8 0.00 0.05 0.04 60 1017.2
20260507054803 85 172 4.3 7.8 0.00 0.05 0.04 60 1017.3
20260507054724 85 176 4.3 7.8 0.00 0.05 0.04 60 1017.3
20260507054603 85 172 4.3 7.8 0.00 0.05 0.04 60 1017.2
20260507054503 85 169 4.3 7.8 0.00 0.05 0.04 60 1017.2
20260507054424 85 168 4.3 7.8 0.00 0.05 0.04 60 1017.2
20260507054303 85 160 5.2 7.8 0.00 0.05 0.04 60 1017.4
20260507054224 85 159 5.2 7.8 0.00 0.05 0.04 60 1017.3
20260507054103 85 163 6.1 8.7 0.00 0.05 0.04 60 1017.3
20260507054003 85 163 6.1 8.7 0.00 0.05 0.04 60 1017.3
20260507053904 85 162 6.1 9.6 0.00 0.05 0.04 60 1017.4
20260507053803 85 160 6.1 9.6 0.00 0.05 0.04 60 1017.3
20260507053705 85 159 6.1 9.6 0.00 0.05 0.04 60 1017.3
20260507053603 85 163 6.1 9.6 0.00 0.05 0.04 60 1017.5
20260507053503 85 168 6.1 9.6 0.00 0.05 0.04 60 1017.5
20260507053403 85 169 5.2 9.6 0.00 0.05 0.04 60 1017.5
20260507053303 85 179 5.2 9.6 0.00 0.05 0.04 60 1017.5
20260507053204 85 186 5.2 9.6 0.00 0.05 0.04 60 1017.3
20260507053124 85 192 5.2 9.6 0.00 0.05 0.04 60 1017.4
20260507053004 85 201 4.3 9.6 0.00 0.05 0.04 60 1017.5
20260507052903 85 213 4.3 7.8 0.00 0.05 0.04 60 1017.5
20260507052803 85 221 4.3 7.8 0.00 0.05 0.04 60 1017.5
20260507052724 85 220 4.3 7.8 0.00 0.05 0.04 60 1017.4
20260507052603 85 229 4.3 7.8 0.00 0.05 0.04 60 1017.4
20260507052503 85 227 4.3 7.8 0.00 0.05 0.04 60 1017.5
20260507052403 85 224 4.3 7.8 0.00 0.05 0.04 60 1017.7
20260507052325 85 223 5.2 7.8 0.00 0.05 0.04 60 1017.7
20260507052203 85 216 4.3 7.8 0.00 0.05 0.04 60 1017.7
20260507052103 85 216 4.3 7.8 0.00 0.05 0.04 60 1017.7
20260507052003 85 220 4.3 7.8 0.00 0.05 0.04 60 1017.6
20260507051903 85 224 4.3 7.8 0.00 0.05 0.04 60 1017.7
20260507051805 85 226 4.3 7.8 0.00 0.05 0.04 60 1017.8
20260507051703 85 238 4.3 7.0 0.00 0.05 0.04 60 1017.9
20260507051603 85 236 4.3 7.0 0.00 0.05 0.04 60 1018.0
20260507051503 85 243 4.3 7.0 0.00 0.05 0.04 60 1017.8
20260507051403 85 248 5.2 7.8 0.00 0.05 0.04 60 1017.7
20260507051303 85 248 5.2 7.8 0.00 0.05 0.04 60 1017.9
20260507051203 85 252 5.2 7.8 0.00 0.05 0.04 60 1017.9
20260507051103 85 259 6.1 8.7 0.00 0.05 0.04 60 1017.9
20260507051003 85 259 6.1 8.7 0.00 0.05 0.04 60 1017.9
20260507050903 85 260 6.1 8.7 0.00 0.05 0.04 60 1017.8
20260507050803 85 259 6.1 8.7 0.00 0.05 0.04 60 1017.8
20260507050704 85 259 6.1 8.7 0.00 0.05 0.04 60 1017.9
20260507050603 85 261 6.1 8.7 0.00 0.05 0.04 60 1018.0
20260507050503 85 264 6.1 8.7 0.00 0.05 0.04 60 1017.9
20260507050403 85 266 6.1 8.7 0.00 0.05 0.04 60 1018.0
20260507050303 85 269 6.1 8.7 0.00 0.05 0.04 60 1017.9
20260507050224 85 270 6.1 8.7 0.00 0.05 0.04 60 1018.0
20260507050124 85 267 5.2 8.7 0.00 0.05 0.04 60 1017.9
20260507050003 85 269 5.2 7.8 0.00 0.05 0.04 60 1018.0
20260507045903 85 271 4.3 7.8 0.00 0.05 0.04 60 1017.8
20260507045805 85 276 4.3 7.8 0.00 0.05 0.04 60 1018.0
20260507045703 85 279 4.3 8.7 0.00 0.05 0.04 60 1018.0
20260507045603 85 277 4.3 8.7 0.00 0.05 0.04 60 1017.9
20260507045503 85 274 5.2 8.7 0.00 0.05 0.04 60 1018.0
20260507045403 85 271 4.3 8.7 0.00 0.05 0.04 60 1017.9
20260507045324 85 271 4.3 8.7 0.00 0.05 0.04 60 1018.0
20260507045203 85 269 4.3 8.7 0.00 0.05 0.04 60 1018.0
20260507045103 85 268 4.3 8.7 0.00 0.05 0.04 60 1017.9
20260507045024 85 265 4.3 8.7 0.00 0.05 0.04 60 1018.0
20260507044924 85 263 4.3 8.7 0.00 0.05 0.04 60 1018.0
20260507044803 85 256 5.2 8.7 0.00 0.05 0.04 60 1018.0
20260507044724 85 255 5.2 8.7 0.00 0.05 0.04 60 1017.9
20260507044603 85 243 5.2 8.7 0.00 0.05 0.04 60 1018.0
20260507044503 85 243 5.2 8.7 0.00 0.05 0.04 60 1018.0
20260507044403 85 240 5.2 8.7 0.00 0.05 0.04 60 1018.0
20260507044304 85 241 4.3 8.7 0.00 0.05 0.04 60 1018.0
20260507044224 85 239 4.3 8.7 0.00 0.05 0.04 60 1018.1
20260507044104 85 243 5.2 8.7 0.00 0.05 0.04 60 1018.1
20260507044004 85 242 4.3 8.7 0.00 0.05 0.04 60 1018.0
20260507043924 85 242 4.3 8.7 0.00 0.05 0.04 60 1018.0
20260507043803 85 240 4.3 8.7 0.00 0.05 0.04 60 1018.0
20260507043724 85 234 4.3 8.7 0.00 0.05 0.04 60 1017.8
20260507043603 85 238 4.3 7.8 0.00 0.05 0.04 60 1017.8
20260507043524 85 234 4.3 7.8 0.00 0.05 0.04 60 1018.0
20260507043424 85 234 5.2 7.8 0.00 0.05 0.04 60 1018.0
20260507043303 85 234 5.2 7.8 0.00 0.05 0.04 60 1018.0
20260507043203 85 234 5.2 7.8 0.00 0.05 0.04 60 1018.1
20260507043103 85 233 5.2 7.8 0.00 0.05 0.04 60 1017.9
20260507043004 85 235 5.2 7.0 0.00 0.05 0.04 60 1018.1
20260507042924 85 235 5.2 7.0 0.00 0.05 0.04 60 1018.0
20260507042803 85 237 5.2 7.8 0.00 0.05 0.04 60 1017.9
20260507042703 85 241 5.2 7.8 0.00 0.05 0.04 60 1018.1
20260507042603 85 246 5.2 7.8 0.00 0.05 0.04 60 1018.1
20260507042503 85 252 5.2 7.8 0.00 0.05 0.04 60 1018.1
20260507042403 85 253 5.2 7.8 0.00 0.05 0.04 60 1018.1
20260507042306 85 254 5.2 7.8 0.00 0.05 0.04 60 1018.1
20260507042203 85 253 5.2 7.8 0.00 0.05 0.04 60 1018.1
20260507042103 85 253 5.2 7.8 0.00 0.05 0.04 60 1018.0
20260507042003 85 254 5.2 7.8 0.00 0.05 0.04 60 1018.3
20260507041903 85 254 5.2 7.8 0.00 0.05 0.04 60 1018.0
20260507041803 85 255 5.2 7.8 0.00 0.05 0.04 60 1018.0
20260507041724 85 255 5.2 7.0 0.00 0.05 0.04 60 1018.0
20260507041603 85 255 5.2 7.8 0.00 0.05 0.04 60 1018.1
20260507041524 85 257 6.1 8.7 0.00 0.05 0.04 60 1018.3
20260507041424 85 255 6.1 9.6 0.00 0.05 0.04 60 1018.1
20260507041303 85 258 6.1 9.6 0.00 0.05 0.04 60 1018.1
20260507041203 85 259 6.1 9.6 0.00 0.05 0.04 60 1018.0
20260507041103 85 259 6.1 9.6 0.00 0.05 0.04 60 1018.0
20260507041025 85 259 6.1 9.6 0.00 0.05 0.04 60 1018.1
20260507040903 85 258 6.1 9.6 0.00 0.05 0.04 60 1018.0
20260507040824 85 257 6.1 9.6 0.00 0.05 0.04 60 1018.0
20260507040704 85 253 6.1 9.6 0.00 0.05 0.04 60 1018.0
20260507040603 85 250 6.1 9.6 0.00 0.05 0.04 60 1018.0
20260507040503 85 244 5.2 9.6 0.00 0.05 0.04 60 1018.1
20260507040404 85 237 5.2 9.6 0.00 0.05 0.04 60 1018.0
20260507040303 85 224 5.2 9.6 0.00 0.05 0.04 60 1018.0
20260507040203 85 211 5.2 9.6 0.00 0.05 0.04 60 1017.9
20260507040103 85 195 6.1 9.6 0.00 0.05 0.04 60 1018.0
20260507040003 85 186 6.1 9.6 0.00 0.05 0.04 60 1017.9
20260507035924 85 182 6.1 9.6 0.00 0.05 0.04 60 1018.1
20260507035803 85 165 5.2 8.7 0.00 0.05 0.04 60 1018.1
20260507035703 85 166 5.2 8.7 0.00 0.05 0.04 60 1017.9
20260507035624 85 164 6.1 8.7 0.00 0.05 0.04 60 1018.0
20260507035503 85 163 6.1 9.6 0.00 0.05 0.04 60 1017.8
20260507035403 85 160 7.0 9.6 0.00 0.05 0.04 60 1017.7
20260507035306 85 162 7.0 9.6 0.00 0.05 0.04 60 1017.9
20260507035203 85 164 7.0 9.6 0.00 0.05 0.04 60 1018.0
20260507035103 85 166 7.0 9.6 0.00 0.05 0.04 60 1017.8
20260507035003 85 171 7.0 9.6 0.00 0.05 0.04 60 1017.9
20260507034903 85 167 7.0 9.6 0.00 0.05 0.04 60 1018.0
20260507034803 85 168 7.8 9.6 0.00 0.05 0.04 60 1018.0
20260507034704 85 167 7.8 9.6 0.00 0.05 0.04 60 1017.9
20260507034603 85 165 7.8 9.6 0.00 0.05 0.04 60 1018.0
20260507034504 85 166 7.8 9.6 0.00 0.05 0.04 60 1018.1
20260507034404 85 166 7.8 11.3 0.00 0.05 0.04 60 1018.1
20260507034303 85 166 7.8 11.3 0.00 0.05 0.04 60 1017.8
20260507034203 85 165 7.8 11.3 0.00 0.05 0.04 60 1018.1
20260507034103 85 168 7.8 11.3 0.00 0.05 0.04 60 1017.9
20260507034004 85 171 7.8 11.3 0.00 0.05 0.04 60 1018.1
20260507033903 85 174 7.8 11.3 0.00 0.05 0.04 60 1018.0
20260507033803 85 177 7.0 11.3 0.00 0.05 0.04 60 1018.0
20260507033703 85 178 7.0 11.3 0.00 0.05 0.04 60 1018.1
20260507033603 85 177 7.0 11.3 0.00 0.05 0.04 60 1018.0
20260507033503 85 179 7.8 11.3 0.00 0.05 0.04 60 1018.1
20260507033403 85 179 7.0 9.6 0.00 0.05 0.04 60 1018.1
20260507033324 85 179 7.0 9.6 0.00 0.05 0.04 60 1018.3
20260507033203 85 178 7.8 9.6 0.00 0.05 0.04 60 1018.1
20260507033103 85 177 7.8 9.6 0.00 0.05 0.04 60 1018.0
20260507033003 85 173 7.8 9.6 0.00 0.05 0.04 60 1018.0
20260507032903 85 171 7.8 9.6 0.00 0.05 0.04 60 1018.3
20260507032805 85 169 7.8 9.6 0.00 0.05 0.04 60 1018.0
20260507032724 85 167 7.8 9.6 0.00 0.05 0.04 60 1018.1
20260507032603 85 165 7.8 9.6 0.00 0.05 0.04 60 1018.1
20260507032504 85 163 7.8 9.6 0.00 0.05 0.04 60 1018.4
20260507032403 85 160 7.0 9.6 0.00 0.05 0.04 60 1018.1
20260507032305 85 156 7.0 9.6 0.00 0.05 0.04 60 1018.0
20260507032203 85 155 7.0 9.6 0.00 0.05 0.04 60 1018.0
20260507032103 85 155 6.1 9.6 0.00 0.05 0.04 60 1018.1
20260507032003 85 154 6.1 9.6 0.00 0.05 0.04 60 1018.0
20260507031903 85 151 6.1 9.6 0.00 0.05 0.04 60 1018.0
20260507031803 85 153 6.1 9.6 0.00 0.05 0.04 60 1018.0
20260507031703 85 153 6.1 9.6 0.00 0.05 0.04 60 1018.1
20260507031624 85 154 6.1 9.6 0.00 0.05 0.04 60 1017.9
20260507031503 85 148 5.2 7.8 0.00 0.05 0.04 60 1018.0
20260507031403 85 154 5.2 7.8 0.00 0.05 0.04 60 1018.0
20260507031324 85 153 5.2 7.8 0.00 0.05 0.04 60 1018.1
20260507031203 85 152 5.2 7.8 0.00 0.05 0.04 60 1018.3
20260507031124 85 155 5.2 7.8 0.00 0.05 0.04 60 1018.0
20260507031004 85 156 5.2 7.8 0.00 0.05 0.04 60 1018.3
20260507030925 85 160 5.2 7.8 0.00 0.05 0.04 60 1017.9
20260507030803 85 163 5.2 7.8 0.00 0.05 0.04 60 1018.0
20260507030703 85 167 5.2 7.0 0.00 0.05 0.04 60 1018.1
20260507030603 85 171 5.2 7.0 0.00 0.05 0.04 60 1018.1
20260507030503 85 178 5.2 7.0 0.00 0.05 0.04 60 1018.3
20260507030403 85 178 5.2 7.0 0.00 0.05 0.04 60 1018.3
20260507030303 85 182 5.2 7.0 0.00 0.05 0.04 60 1018.3
20260507030203 85 189 5.2 7.0 0.00 0.05 0.04 60 1018.4
20260507030024 85 190 4.3 7.0 0.00 0.05 0.04 60 1018.1
20260507025903 85 188 5.2 7.8 0.00 0.05 0.04 60 1018.4
20260507025803 85 189 5.2 7.8 0.00 0.05 0.04 60 1018.3
20260507025703 85 191 5.2 7.8 0.00 0.05 0.04 60 1018.0
20260507025603 85 187 5.2 7.8 0.00 0.05 0.04 60 1018.5
20260507025504 85 183 5.2 7.8 0.00 0.05 0.04 60 1018.1
20260507025403 85 183 5.2 7.8 0.00 0.05 0.04 60 1018.5
20260507025306 85 180 5.2 8.7 0.00 0.05 0.04 60 1018.4
20260507025203 85 180 6.1 8.7 0.00 0.05 0.04 60 1018.5
20260507025103 85 173 6.1 8.7 0.00 0.05 0.04 60 1018.4
20260507025003 85 172 6.1 8.7 0.00 0.05 0.04 60 1018.3
20260507024903 85 172 6.1 8.7 0.00 0.05 0.04 60 1018.4
20260507024805 85 172 6.1 8.7 0.00 0.05 0.04 60 1018.4
20260507024703 85 170 6.1 8.7 0.00 0.05 0.04 60 1018.4
20260507024604 85 169 7.0 8.7 0.00 0.05 0.04 60 1018.3
20260507024524 85 171 7.0 9.6 0.00 0.05 0.04 60 1018.4
20260507024403 85 174 7.0 9.6 0.00 0.05 0.04 60 1018.3
20260507024304 85 174 7.0 9.6 0.00 0.05 0.04 60 1018.3
20260507024203 85 174 7.0 9.6 0.00 0.05 0.04 60 1018.3
20260507024103 85 176 7.0 9.6 0.00 0.05 0.04 60 1018.4
20260507024004 85 180 7.0 9.6 0.00 0.05 0.04 60 1018.0
20260507023924 85 181 7.0 9.6 0.00 0.05 0.04 60 1018.3
20260507023803 85 182 7.0 9.6 0.00 0.05 0.04 60 1018.1
20260507023703 85 180 7.0 9.6 0.00 0.05 0.04 60 1018.3
20260507023603 85 182 7.0 9.6 0.00 0.05 0.04 60 1018.3
20260507023525 85 179 7.0 9.6 0.00 0.05 0.04 60 1018.3
20260507023403 85 175 7.0 9.6 0.00 0.05 0.04 60 1018.3
20260507023304 85 172 6.1 9.6 0.00 0.05 0.04 60 1018.4
20260507023203 85 171 6.1 9.6 0.00 0.05 0.04 60 1018.4
20260507023103 85 170 6.1 9.6 0.00 0.05 0.04 60 1018.3
20260507023004 85 165 6.1 8.7 0.00 0.05 0.04 60 1018.3
20260507022924 85 163 6.1 8.7 0.00 0.05 0.04 60 1018.1
20260507022805 85 159 6.1 8.7 0.00 0.05 0.04 60 1018.1
20260507022725 85 157 6.1 8.7 0.00 0.05 0.04 60 1018.3
20260507022603 85 158 7.0 8.7 0.00 0.05 0.04 60 1018.0
20260507022503 85 159 7.0 8.7 0.00 0.05 0.04 60 1018.3
20260507022403 85 160 6.1 8.7 0.00 0.05 0.04 60 1018.0
20260507022306 85 158 6.1 8.7 0.00 0.05 0.04 60 1017.9
20260507022203 85 156 6.1 8.7 0.00 0.05 0.04 60 1018.4
20260507022103 85 155 6.1 8.7 0.00 0.05 0.04 60 1018.3
20260507022003 85 149 6.1 8.7 0.00 0.05 0.04 60 1018.1
20260507021903 85 149 6.1 8.7 0.00 0.05 0.04 60 1018.3
20260507021803 85 147 5.2 8.7 0.00 0.05 0.04 60 1018.1
20260507021704 85 149 5.2 8.7 0.00 0.05 0.04 60 1018.0
20260507021603 85 140 5.2 8.7 0.00 0.05 0.04 60 1018.1
20260507021503 85 139 5.2 8.7 0.00 0.05 0.04 60 1018.1
20260507021404 85 133 5.2 8.7 0.00 0.05 0.04 60 1018.0
20260507021303 85 130 5.2 8.7 0.00 0.05 0.04 60 1018.0
20260507021205 85 136 5.2 8.7 0.00 0.05 0.04 60 1018.1
20260507021103 85 137 5.2 8.7 0.00 0.05 0.04 60 1018.1
20260507021025 85 136 5.2 8.7 0.00 0.05 0.04 60 1018.0
20260507020903 85 141 4.3 8.7 0.00 0.05 0.04 60 1018.0
20260507020803 85 140 4.3 8.7 0.00 0.05 0.04 60 1018.0
20260507020703 85 141 5.2 8.7 0.00 0.05 0.04 60 1018.0
20260507020603 85 142 5.2 8.7 0.00 0.05 0.04 60 1018.0
20260507020503 85 135 4.3 8.7 0.00 0.05 0.04 60 1018.0
20260507020403 85 139 4.3 8.7 0.00 0.05 0.04 60 1018.3
20260507020303 85 138 4.3 8.7 0.00 0.05 0.04 60 1018.1
20260507020224 85 140 5.2 9.6 0.00 0.05 0.04 60 1018.1
20260507020103 85 140 5.2 9.6 0.00 0.05 0.04 60 1018.3
20260507020003 85 139 5.2 9.6 0.00 0.05 0.04 60 1018.0
20260507015924 85 138 5.2 9.6 0.00 0.05 0.04 60 1018.4
20260507015803 85 137 6.1 9.6 0.00 0.05 0.04 60 1018.1
20260507015703 85 140 6.1 9.6 0.00 0.05 0.04 60 1018.3
20260507015604 85 138 6.1 9.6 0.00 0.05 0.04 60 1018.4
20260507015504 85 138 6.1 9.6 0.00 0.05 0.04 60 1018.3
20260507015424 85 138 6.1 9.6 0.00 0.05 0.04 60 1018.1
20260507015306 85 141 6.1 9.6 0.00 0.05 0.04 60 1018.3
20260507015203 85 142 5.2 8.7 0.00 0.05 0.04 60 1018.1
20260507015104 85 142 5.2 8.7 0.00 0.05 0.04 60 1018.1
20260507015004 85 146 5.2 8.7 0.00 0.05 0.04 60 1018.0
20260507014903 85 148 5.2 8.7 0.00 0.05 0.04 60 1018.0
20260507014824 85 149 5.2 8.7 0.00 0.05 0.04 60 1018.0
20260507014703 85 151 5.2 7.8 0.00 0.05 0.04 60 1018.0
20260507014603 85 150 6.1 8.7 0.00 0.05 0.04 60 1018.0
20260507014504 85 153 6.1 8.7 0.00 0.05 0.04 60 1018.1
20260507014403 85 154 6.1 8.7 0.00 0.05 0.04 60 1017.8
20260507014303 85 154 6.1 8.7 0.00 0.05 0.04 60 1018.0
20260507014203 85 154 7.0 8.7 0.00 0.05 0.04 60 1018.0
20260507014103 85 154 7.0 8.7 0.00 0.05 0.04 60 1017.9
20260507014004 85 155 7.0 8.7 0.00 0.05 0.04 60 1017.7
20260507013925 85 155 7.0 8.7 0.00 0.05 0.04 60 1017.8
20260507013824 85 154 7.0 8.7 0.00 0.05 0.04 60 1017.8
20260507013703 85 153 6.1 8.7 0.00 0.05 0.04 60 1017.8
20260507013603 85 156 6.1 7.8 0.00 0.05 0.04 60 1017.7
20260507013503 85 157 5.2 7.8 0.00 0.05 0.04 60 1017.7
20260507013403 85 157 5.2 7.8 0.00 0.05 0.04 60 1017.6
20260507013303 85 158 5.2 7.8 0.00 0.05 0.04 60 1017.6
20260507013203 85 158 5.2 7.8 0.00 0.05 0.04 60 1017.7
20260507013105 85 159 5.2 7.0 0.00 0.05 0.04 60 1017.6
20260507013004 85 160 5.2 7.8 0.00 0.05 0.04 60 1017.7
20260507012924 85 159 5.2 7.8 0.00 0.05 0.04 60 1017.8
20260507012803 85 157 5.2 7.8 0.00 0.05 0.04 60 1017.7
20260507012724 85 157 5.2 7.8 0.00 0.05 0.04 60 1017.8
20260507012604 85 159 5.2 7.8 0.00 0.05 0.04 60 1017.6
20260507012504 85 157 5.2 7.8 0.00 0.05 0.04 60 1017.7
20260507012424 85 156 5.2 7.8 0.00 0.05 0.04 60 1017.7
20260507012306 85 156 5.2 7.8 0.00 0.05 0.04 60 1017.5
20260507012203 85 156 5.2 7.8 0.00 0.05 0.04 60 1017.6
20260507012103 85 155 5.2 7.8 0.00 0.05 0.04 60 1017.7
20260507012003 85 150 4.3 7.0 0.00 0.05 0.04 60 1017.7
20260507011903 85 147 5.2 7.0 0.00 0.05 0.04 60 1017.6
20260507011803 85 148 5.2 7.0 0.00 0.05 0.04 60 1017.6
20260507011703 85 148 5.2 7.0 0.00 0.05 0.04 60 1017.7
20260507011624 85 145 5.2 7.0 0.00 0.05 0.04 60 1017.5
20260507011504 85 144 4.3 7.0 0.00 0.05 0.04 60 1017.8
20260507011404 85 141 5.2 7.0 0.00 0.05 0.04 60 1017.7
20260507011303 85 139 4.3 7.0 0.00 0.05 0.04 60 1017.7
20260507011204 85 139 4.3 7.0 0.00 0.05 0.04 60 1017.7
20260507011103 85 138 4.3 7.0 0.00 0.05 0.04 60 1017.5
20260507010903 85 143 4.3 7.0 0.00 0.05 0.04 60 1017.6
20260507010803 85 141 4.3 7.0 0.00 0.05 0.04 60 1017.8
20260507010725 85 141 5.2 7.0 0.00 0.05 0.04 60 1017.5
20260507010603 85 142 5.2 7.0 0.00 0.05 0.04 60 1017.5
20260507010524 85 143 5.2 7.0 0.00 0.05 0.04 60 1017.5
20260507010424 85 141 5.2 7.0 0.00 0.05 0.04 60 1017.5
20260507010303 85 142 5.2 7.0 0.00 0.05 0.04 60 1017.5
20260507010224 85 142 5.2 7.0 0.00 0.05 0.04 60 1017.4
20260507010124 85 142 5.2 7.0 0.00 0.05 0.04 60 1017.5
20260507010004 85 139 5.2 7.0 0.00 0.05 0.04 60 1017.5
20260507005903 85 139 4.3 7.0 0.00 0.05 0.04 60 1017.5
20260507005804 85 142 4.3 7.0 0.00 0.05 0.04 60 1017.3
20260507005703 85 143 4.3 7.0 0.00 0.05 0.04 60 1017.5
20260507005603 85 142 4.3 6.1 0.00 0.05 0.04 60 1017.5
20260507005503 85 142 4.3 6.1 0.00 0.05 0.04 60 1017.5
20260507005403 85 141 3.5 6.1 0.00 0.05 0.04 60 1017.4
20260507005305 85 142 3.5 6.1 0.00 0.05 0.04 60 1017.4
20260507005224 85 144 3.5 6.1 0.00 0.05 0.04 60 1017.3
20260507005104 85 142 3.5 6.1 0.00 0.05 0.04 60 1017.6
20260507005004 85 143 3.5 6.1 0.00 0.05 0.04 60 1017.4
20260507004903 85 144 3.5 6.1 0.00 0.05 0.04 60 1017.2
20260507004803 85 140 3.5 6.1 0.00 0.05 0.04 60 1017.4
20260507004724 85 140 3.5 6.1 0.00 0.05 0.04 60 1017.2
20260507004603 85 144 4.3 7.0 0.00 0.05 0.04 60 1017.2
20260507004505 85 146 4.3 7.8 0.00 0.05 0.04 60 1017.2
20260507004403 85 153 4.3 7.8 0.00 0.05 0.04 60 1017.2
20260507004303 85 153 5.2 7.8 0.00 0.05 0.04 60 1017.2
20260507004203 85 153 5.2 7.8 0.00 0.05 0.04 60 1017.2
20260507004103 85 156 5.2 7.8 0.00 0.05 0.04 60 1017.1
20260507004004 85 159 5.2 7.8 0.00 0.05 0.04 60 1017.3
20260507003903 85 159 5.2 7.8 0.00 0.05 0.04 60 1017.2
20260507003803 85 161 6.1 7.8 0.00 0.05 0.04 60 1017.4
20260507003703 85 161 6.1 7.8 0.00 0.05 0.04 60 1017.3
20260507003603 85 161 6.1 7.8 0.00 0.05 0.04 60 1017.2
20260507003504 85 163 5.2 7.8 0.00 0.05 0.04 60 1017.2
20260507003403 85 160 5.2 7.8 0.00 0.05 0.04 60 1017.4
20260507003303 85 160 5.2 7.8 0.00 0.05 0.04 60 1017.4
20260507003203 85 164 5.2 7.8 0.00 0.05 0.04 60 1017.2
20260507003103 85 166 4.3 7.8 0.00 0.05 0.04 60 1017.2
20260507003024 85 165 4.3 7.8 0.00 0.05 0.04 60 1017.2
20260507002903 85 166 4.3 7.8 0.00 0.05 0.04 60 1017.3
20260507002824 85 165 4.3 7.8 0.00 0.05 0.04 60 1017.1
20260507002703 85 157 3.5 7.0 0.00 0.05 0.04 60 1017.1
20260507002624 85 157 3.5 7.0 0.00 0.05 0.04 60 1017.1
20260507002504 85 152 3.5 7.0 0.00 0.05 0.04 60 1017.2
20260507002403 85 158 3.5 7.0 0.00 0.05 0.04 60 1017.1
20260507002306 85 160 3.5 7.0 0.00 0.05 0.04 60 1016.7
20260507002225 85 160 3.5 7.0 0.00 0.05 0.04 60 1016.7
20260507002104 85 155 3.5 7.0 0.00 0.05 0.04 60 1017.1
20260507002003 85 155 3.5 7.0 0.00 0.05 0.04 60 1017.0
20260507001904 85 153 3.5 7.0 0.00 0.05 0.04 60 1017.0
20260507001803 85 154 3.5 7.0 0.00 0.05 0.04 60 1016.9
20260507001703 85 154 3.5 7.0 0.00 0.05 0.04 60 1017.0
20260507001603 85 157 3.5 7.0 0.00 0.05 0.04 60 1016.9
20260507001503 85 153 3.5 6.1 0.00 0.05 0.04 60 1016.9
20260507001403 85 152 4.3 6.1 0.00 0.05 0.04 60 1016.9
20260507001303 85 151 4.3 6.1 0.00 0.05 0.04 60 1016.9
20260507001203 85 152 4.3 6.1 0.00 0.05 0.04 60 1017.0
20260507001103 85 152 4.3 6.1 0.00 0.05 0.04 60 1016.7
20260507001003 85 152 3.5 6.1 0.00 0.05 0.04 60 1016.7
20260507000904 85 157 3.5 6.1 0.00 0.05 0.04 60 1016.6
20260507000803 85 158 3.5 6.1 0.00 0.05 0.04 60 1016.6
20260507000703 85 164 3.5 6.1 0.00 0.05 0.04 60 1016.6
20260507000603 85 168 3.5 5.2 0.00 0.05 0.04 60 1016.7
20260507000503 85 175 2.6 5.2 0.00 0.05 0.04 60 1016.5
20260507000424 85 179 2.6 5.2 0.00 0.05 0.04 60 1016.5
20260507000306 85 191 2.6 5.2 0.00 0.05 0.04 60 1016.7
20260507000205 85 198 1.7 5.2 0.00 0.05 0.04 60 1016.5
20260507000124 85 202 1.7 5.2 0.00 0.05 0.04 60 1016.6
20260507000004 85 211 1.7 2.6 0.00 0.05 0.04 60 1016.5
20260506235903 85 215 1.7 2.6 0.00 0.05 0.04 60 1016.7
20260506235804 85 214 1.7 2.6 0.00 0.05 0.04 60 1016.6
20260506235724 85 214 1.7 2.6 0.00 0.05 0.04 60 1016.6
20260506235625 85 215 1.7 2.6 0.00 0.05 0.04 60 1016.6
20260506235503 85 217 1.7 2.6 0.00 0.05 0.04 60 1016.5
20260506235404 85 216 1.7 2.6 0.00 0.05 0.04 60 1016.5
20260506235306 85 214 1.7 2.6 0.00 0.05 0.04 60 1016.3
20260506235203 85 210 1.7 2.6 0.00 0.05 0.04 60 1016.5
20260506235103 85 208 1.7 2.6 0.00 0.05 0.04 60 1016.3
20260506235003 85 204 1.7 2.6 0.00 0.05 0.04 60 1016.4
20260506234924 85 203 1.7 2.6 0.00 0.05 0.04 60 1016.5
20260506234824 85 203 1.7 2.6 0.00 0.05 0.04 60 1016.4
20260506234704 85 194 1.7 2.6 0.00 0.05 0.04 60 1016.3
20260506234603 85 186 1.7 2.6 0.00 0.05 0.04 60 1016.4
20260506234504 85 182 1.7 2.6 0.00 0.05 0.04 60 1016.3
20260506234404 85 177 1.7 2.6 0.00 0.05 0.04 60 1016.3
20260506234303 85 172 1.7 2.6 0.00 0.05 0.04 60 1016.3
20260506234203 85 171 1.7 2.6 0.00 0.05 0.04 60 1016.4
20260506234103 85 169 1.7 2.6 0.00 0.05 0.04 60 1016.2
20260506234003 85 171 1.7 2.6 0.00 0.05 0.04 60 1016.4
20260506233903 85 169 2.6 2.6 0.00 0.05 0.04 60 1016.4
20260506233803 85 166 2.6 2.6 0.00 0.05 0.04 60 1016.3
20260506233724 85 166 2.6 2.6 0.00 0.05 0.04 60 1016.3
20260506233604 85 167 1.7 2.6 0.00 0.05 0.04 60 1016.4
20260506233504 85 169 1.7 2.6 0.00 0.05 0.04 60 1016.1
20260506233403 85 168 1.7 2.6 0.00 0.05 0.04 60 1016.3
20260506233303 85 169 1.7 2.6 0.00 0.05 0.04 60 1016.2
20260506233203 85 169 1.7 2.6 0.00 0.05 0.04 60 1016.3
20260506233103 85 167 1.7 2.6 0.00 0.05 0.04 60 1016.2
20260506233024 85 166 1.7 2.6 0.00 0.05 0.04 60 1016.4
20260506232924 85 165 1.7 2.6 0.00 0.05 0.04 60 1016.4
20260506232803 85 167 1.7 2.6 0.00 0.05 0.04 60 1016.2
20260506232703 85 170 1.7 2.6 0.00 0.05 0.04 60 1016.2
20260506232624 85 169 1.7 2.6 0.00 0.05 0.04 60 1016.3
20260506232503 85 169 1.7 2.6 0.00 0.05 0.04 60 1016.3
20260506232403 85 170 1.7 2.6 0.00 0.05 0.04 60 1016.2
20260506232324 85 170 0.9 2.6 0.00 0.05 0.04 60 1016.2
20260506232203 85 169 1.7 2.6 0.00 0.05 0.04 60 1016.1
20260506232103 85 170 1.7 3.5 0.00 0.05 0.04 60 1016.2
20260506232024 85 170 1.7 3.5 0.00 0.05 0.04 60 1016.2
20260506231903 85 169 1.7 5.2 0.00 0.05 0.04 60 1016.2
20260506231804 85 168 1.7 5.2 0.00 0.05 0.04 60 1016.2
20260506231703 85 161 2.6 5.2 0.00 0.05 0.04 60 1016.1
20260506231603 85 161 2.6 5.2 0.00 0.05 0.04 60 1016.0
20260506231504 85 157 2.6 5.2 0.00 0.05 0.04 60 1016.2
20260506231424 85 156 2.6 5.2 0.00 0.05 0.04 60 1016.2
20260506231303 85 154 3.5 5.2 0.00 0.05 0.04 60 1016.1
20260506231203 85 151 3.5 5.2 0.00 0.05 0.04 60 1016.1
20260506231124 85 149 2.6 5.2 0.00 0.05 0.04 60 1015.9
20260506231003 85 146 2.6 5.2 0.00 0.05 0.04 60 1016.1
20260506230903 85 141 2.6 3.5 0.00 0.05 0.04 60 1016.1
20260506230803 85 138 2.6 3.5 0.00 0.05 0.04 60 1016.1
20260506230703 85 133 2.6 3.5 0.00 0.05 0.04 60 1016.0
20260506230604 85 129 2.6 3.5 0.00 0.05 0.04 60 1016.0
20260506230503 85 123 1.7 3.5 0.00 0.05 0.04 60 1016.0
20260506230403 85 118 1.7 3.5 0.00 0.05 0.04 60 1015.8
20260506230324 85 114 1.7 2.6 0.00 0.05 0.04 60 1016.0
20260506230203 85 112 1.7 2.6 0.00 0.05 0.04 60 1015.9
20260506230103 85 116 1.7 2.6 0.00 0.05 0.04 60 1015.8
20260506230004 85 118 1.7 2.6 0.00 0.05 0.04 60 1015.8
20260506225903 85 121 1.7 2.6 0.00 0.05 0.04 60 1015.9
20260506225804 85 120 1.7 2.6 0.00 0.05 0.04 60 1015.8
20260506225703 85 120 1.7 2.6 0.00 0.05 0.04 60 1015.5
20260506225624 85 121 1.7 2.6 0.00 0.05 0.04 60 1015.9
20260506225503 85 131 0.9 1.7 0.00 0.05 0.04 60 1015.8